SIA22 WSSS-KEWR
Flight info
| Callsign | SIA22 |
|---|---|
| Flight time | N/A |
| Altitude | 32000 |
| Route | TOMAN5B TOMAN L625 AKMON/K0954F320 L625 ANOKI/N0514F320 L625 ARESI/N0502F350 L625 MEVIN B462 KAZIK Y59 AZAMA Y57 SHIBK/N0491F370 Y57 PUTER A590 PASRO/N0488F390 A590 HAMND/N0495F410 DCT TED J511 GKN J124 ORT DCT 63N140W 63N130W 62N120W 59N110W 5530N10000W DCT MISAX DCT SSM DCT BUF DCT HNK FLOSI4 |
| Aircraft | A359/H-SDE2E3GHIJ3J4J5LM1ORWXY/LB1D1 |
Departure
| Time | 2026-05-07 04:59 |
|---|---|
| Airport | Singapore Changi Airport (WSSS) |
Arrival
| Time | N/A |
|---|---|
| Airport | Newark Liberty International Airport (KEWR) |
| Time | Latitude | Longitude | Altitude | Speed | Heading |
|---|---|---|---|---|---|
| 2026-05-07 03:29 | 1.35017 | 103.98221 | 31 ft | 0 kts | 154° |
| 2026-05-07 04:47 | 1.35028 | 103.98216 | 31 ft | 4 kts | 158° |
| 2026-05-07 04:47 | 1.35053 | 103.98208 | 29 ft | 4 kts | 170° |
| 2026-05-07 04:47 | 1.35080 | 103.98206 | 28 ft | 4 kts | 184° |
| 2026-05-07 04:47 | 1.35107 | 103.98210 | 29 ft | 4 kts | 199° |
| 2026-05-07 04:48 | 1.35131 | 103.98221 | 28 ft | 4 kts | 212° |
| 2026-05-07 04:48 | 1.35153 | 103.98237 | 29 ft | 4 kts | 220° |
| 2026-05-07 04:48 | 1.35174 | 103.98253 | 29 ft | 3 kts | 206° |
| 2026-05-07 04:48 | 1.35177 | 103.98255 | 29 ft | 0 kts | 204° |
| 2026-05-07 04:50 | 1.35175 | 103.98254 | 29 ft | 2 kts | 205° |
| 2026-05-07 04:51 | 1.35142 | 103.98225 | 29 ft | 7 kts | 232° |
| 2026-05-07 04:51 | 1.35123 | 103.98182 | 31 ft | 6 kts | 269° |
| 2026-05-07 04:51 | 1.35148 | 103.98159 | 32 ft | 9 kts | 342° |
| 2026-05-07 04:51 | 1.35266 | 103.98192 | 32 ft | 22 kts | 23° |
| 2026-05-07 04:52 | 1.35405 | 103.98252 | 32 ft | 21 kts | 24° |
| 2026-05-07 04:52 | 1.35541 | 103.98310 | 31 ft | 21 kts | 23° |
| 2026-05-07 04:52 | 1.35674 | 103.98366 | 31 ft | 21 kts | 23° |
| 2026-05-07 04:52 | 1.35803 | 103.98421 | 31 ft | 20 kts | 23° |
| 2026-05-07 04:53 | 1.35930 | 103.98476 | 31 ft | 20 kts | 23° |
| 2026-05-07 04:53 | 1.36054 | 103.98529 | 32 ft | 19 kts | 22° |
| 2026-05-07 04:53 | 1.36175 | 103.98579 | 32 ft | 19 kts | 22° |
| 2026-05-07 04:53 | 1.36293 | 103.98628 | 32 ft | 18 kts | 23° |
| 2026-05-07 04:54 | 1.36409 | 103.98677 | 32 ft | 18 kts | 23° |
| 2026-05-07 04:54 | 1.36522 | 103.98725 | 31 ft | 18 kts | 23° |
| 2026-05-07 04:54 | 1.36635 | 103.98774 | 31 ft | 17 kts | 23° |
| 2026-05-07 04:54 | 1.36746 | 103.98819 | 31 ft | 17 kts | 22° |
| 2026-05-07 04:55 | 1.36794 | 103.98903 | 31 ft | 14 kts | 107° |
| 2026-05-07 04:55 | 1.36755 | 103.98995 | 31 ft | 14 kts | 113° |
| 2026-05-07 04:55 | 1.36716 | 103.99086 | 31 ft | 14 kts | 113° |
| 2026-05-07 04:55 | 1.36679 | 103.99174 | 31 ft | 14 kts | 113° |
| 2026-05-07 04:56 | 1.36641 | 103.99261 | 31 ft | 14 kts | 113° |
| 2026-05-07 04:56 | 1.36602 | 103.99354 | 31 ft | 15 kts | 113° |
| 2026-05-07 04:56 | 1.36560 | 103.99452 | 31 ft | 19 kts | 113° |
| 2026-05-07 04:56 | 1.36502 | 103.99589 | 31 ft | 21 kts | 113° |
| 2026-05-07 04:57 | 1.36443 | 103.99722 | 31 ft | 20 kts | 114° |
| 2026-05-07 04:57 | 1.36385 | 103.99848 | 31 ft | 19 kts | 127° |
| 2026-05-07 04:57 | 1.36273 | 103.99882 | 33 ft | 16 kts | 172° |
| 2026-05-07 04:57 | 1.36166 | 103.99881 | 33 ft | 15 kts | 200° |
| 2026-05-07 04:58 | 1.36016 | 103.99819 | 33 ft | 43 kts | 202° |
| 2026-05-07 04:58 | 1.35576 | 103.99634 | 36 ft | 92 kts | 203° |
| 2026-05-07 04:58 | 1.34844 | 103.99326 | 37 ft | 135 kts | 202° |
| 2026-05-07 04:58 | 1.33861 | 103.98915 | 67 ft | 166 kts | 201° |
| 2026-05-07 04:59 | 1.32841 | 103.98491 | 529 ft | 161 kts | 201° |
| 2026-05-07 04:59 | 1.31778 | 103.98047 | 785 ft | 170 kts | 202° |
| 2026-05-07 04:59 | 1.30675 | 103.97574 | 1146 ft | 173 kts | 202° |
| 2026-05-07 04:59 | 1.29541 | 103.97077 | 1356 ft | 184 kts | 202° |
| 2026-05-07 05:00 | 1.28324 | 103.96562 | 1526 ft | 197 kts | 201° |
| 2026-05-07 05:00 | 1.27019 | 103.96014 | 1717 ft | 209 kts | 202° |
| 2026-05-07 05:00 | 1.25623 | 103.95438 | 1862 ft | 226 kts | 202° |
| 2026-05-07 05:00 | 1.24090 | 103.94916 | 2056 ft | 240 kts | 189° |
| 2026-05-07 05:01 | 1.22407 | 103.95098 | 2241 ft | 253 kts | 154° |
| 2026-05-07 05:01 | 1.20957 | 103.96121 | 2621 ft | 258 kts | 139° |
| 2026-05-07 05:01 | 1.19610 | 103.97318 | 3083 ft | 261 kts | 139° |
| 2026-05-07 05:01 | 1.18269 | 103.98516 | 3552 ft | 263 kts | 139° |
| 2026-05-07 05:02 | 1.17342 | 103.99338 | 3864 ft | 265 kts | 139° |
| 2026-05-07 05:02 | 1.15507 | 104.00962 | 4498 ft | 268 kts | 138° |
| 2026-05-07 05:02 | 1.14333 | 104.02418 | 4938 ft | 271 kts | 119° |
| 2026-05-07 05:02 | 1.13517 | 104.04123 | 5415 ft | 273 kts | 114° |
| 2026-05-07 05:03 | 1.13009 | 104.05303 | 5711 ft | 275 kts | 114° |
| 2026-05-07 05:03 | 1.12260 | 104.07051 | 5941 ft | 277 kts | 114° |
| 2026-05-07 05:03 | 1.11497 | 104.08817 | 5965 ft | 278 kts | 114° |
| 2026-05-07 05:03 | 1.10727 | 104.10589 | 5969 ft | 278 kts | 114° |
| 2026-05-07 05:04 | 1.09955 | 104.12360 | 5967 ft | 277 kts | 115° |
| 2026-05-07 05:04 | 1.09185 | 104.14123 | 5965 ft | 277 kts | 114° |
| 2026-05-07 05:04 | 1.08418 | 104.15896 | 5969 ft | 278 kts | 113° |
| 2026-05-07 05:04 | 1.07964 | 104.17767 | 5962 ft | 278 kts | 94° |
| 2026-05-07 05:05 | 1.07974 | 104.19701 | 6105 ft | 279 kts | 89° |
| 2026-05-07 05:05 | 1.08055 | 104.21648 | 6474 ft | 281 kts | 88° |
| 2026-05-07 05:05 | 1.08134 | 104.23598 | 7003 ft | 281 kts | 88° |
| 2026-05-07 05:05 | 1.08210 | 104.25550 | 7495 ft | 281 kts | 89° |
| 2026-05-07 05:06 | 1.08282 | 104.27501 | 8013 ft | 281 kts | 89° |
| 2026-05-07 05:06 | 1.08353 | 104.29459 | 8516 ft | 283 kts | 89° |
| 2026-05-07 05:06 | 1.08424 | 104.31436 | 8866 ft | 286 kts | 89° |
| 2026-05-07 05:06 | 1.08494 | 104.33400 | 8963 ft | 286 kts | 89° |
| 2026-05-07 05:07 | 1.08564 | 104.35382 | 8968 ft | 287 kts | 89° |
| 2026-05-07 05:07 | 1.08636 | 104.37403 | 8968 ft | 287 kts | 89° |
| 2026-05-07 05:07 | 1.08706 | 104.39399 | 8967 ft | 287 kts | 89° |
| 2026-05-07 05:07 | 1.08777 | 104.41395 | 8967 ft | 287 kts | 89° |
| 2026-05-07 05:08 | 1.08855 | 104.43387 | 8967 ft | 287 kts | 87° |
| 2026-05-07 05:08 | 1.09283 | 104.45331 | 8963 ft | 289 kts | 66° |
| 2026-05-07 05:08 | 1.10443 | 104.46957 | 8970 ft | 289 kts | 47° |
| 2026-05-07 05:08 | 1.11862 | 104.48381 | 8969 ft | 291 kts | 45° |
| 2026-05-07 05:09 | 1.13298 | 104.49780 | 8966 ft | 291 kts | 45° |
| 2026-05-07 05:09 | 1.14745 | 104.51198 | 8964 ft | 291 kts | 46° |
| 2026-05-07 05:09 | 1.16208 | 104.52640 | 8965 ft | 292 kts | 46° |
| 2026-05-07 05:09 | 1.17648 | 104.54065 | 8966 ft | 291 kts | 46° |
| 2026-05-07 05:10 | 1.19069 | 104.55473 | 8965 ft | 291 kts | 46° |
| 2026-05-07 05:10 | 1.20525 | 104.56918 | 8964 ft | 291 kts | 46° |
| 2026-05-07 05:10 | 1.21944 | 104.58328 | 8964 ft | 291 kts | 46° |
| 2026-05-07 05:10 | 1.23380 | 104.59757 | 9118 ft | 293 kts | 46° |
| 2026-05-07 05:11 | 1.24833 | 104.61198 | 9567 ft | 294 kts | 46° |
| 2026-05-07 05:11 | 1.26283 | 104.62636 | 10081 ft | 294 kts | 46° |
| 2026-05-07 05:11 | 1.27174 | 104.63521 | 10234 ft | 300 kts | 46° |
| 2026-05-07 05:11 | 1.27929 | 104.64271 | 10363 ft | 306 kts | 46° |
| 2026-05-07 05:12 | 1.29387 | 104.65719 | 10552 ft | 317 kts | 46° |
| 2026-05-07 05:12 | 1.30977 | 104.67299 | 10761 ft | 327 kts | 46° |
| 2026-05-07 05:12 | 1.32528 | 104.69008 | 10952 ft | 337 kts | 55° |
| 2026-05-07 05:12 | 1.33554 | 104.71131 | 11111 ft | 345 kts | 76° |
| 2026-05-07 05:13 | 1.33843 | 104.73532 | 11309 ft | 353 kts | 88° |
| 2026-05-07 05:13 | 1.33898 | 104.76018 | 11490 ft | 362 kts | 89° |
| 2026-05-07 05:13 | 1.33938 | 104.78564 | 11670 ft | 371 kts | 89° |
| 2026-05-07 05:13 | 1.33987 | 104.81170 | 11832 ft | 379 kts | 89° |
| 2026-05-07 05:14 | 1.34044 | 104.83825 | 12035 ft | 386 kts | 89° |
| 2026-05-07 05:14 | 1.34105 | 104.86531 | 12284 ft | 391 kts | 89° |
| 2026-05-07 05:14 | 1.34169 | 104.89254 | 12586 ft | 394 kts | 89° |
| 2026-05-07 05:14 | 1.34232 | 104.91998 | 12891 ft | 396 kts | 89° |
| 2026-05-07 05:15 | 1.34298 | 104.94727 | 13188 ft | 398 kts | 88° |
| 2026-05-07 05:15 | 1.34366 | 104.97530 | 13506 ft | 400 kts | 88° |
| 2026-05-07 05:15 | 1.34432 | 105.00282 | 13799 ft | 402 kts | 88° |
| 2026-05-07 05:15 | 1.34500 | 105.03110 | 14052 ft | 404 kts | 88° |
| 2026-05-07 05:16 | 1.34567 | 105.05883 | 14311 ft | 405 kts | 88° |
| 2026-05-07 05:16 | 1.34635 | 105.08707 | 14565 ft | 407 kts | 88° |
| 2026-05-07 05:16 | 1.34703 | 105.11542 | 14820 ft | 409 kts | 88° |
| 2026-05-07 05:16 | 1.34771 | 105.14386 | 15068 ft | 410 kts | 88° |
| 2026-05-07 05:17 | 1.34840 | 105.17243 | 15312 ft | 412 kts | 88° |
| 2026-05-07 05:17 | 1.34908 | 105.20102 | 15548 ft | 413 kts | 88° |
| 2026-05-07 05:17 | 1.34977 | 105.22977 | 15790 ft | 415 kts | 88° |
| 2026-05-07 05:17 | 1.35046 | 105.25866 | 16026 ft | 416 kts | 88° |
| 2026-05-07 05:18 | 1.35115 | 105.28767 | 16257 ft | 418 kts | 88° |
| 2026-05-07 05:18 | 1.35185 | 105.31676 | 16479 ft | 420 kts | 88° |
| 2026-05-07 05:18 | 1.35255 | 105.34600 | 16726 ft | 421 kts | 88° |
| 2026-05-07 05:18 | 1.35325 | 105.37533 | 16968 ft | 422 kts | 88° |
| 2026-05-07 05:19 | 1.35395 | 105.40476 | 17195 ft | 424 kts | 88° |
| 2026-05-07 05:19 | 1.35465 | 105.43421 | 17428 ft | 426 kts | 88° |
| 2026-05-07 05:19 | 1.35536 | 105.46385 | 17673 ft | 427 kts | 88° |
| 2026-05-07 05:19 | 1.35606 | 105.49321 | 17882 ft | 429 kts | 88° |
| 2026-05-07 05:20 | 1.35677 | 105.52304 | 18125 ft | 430 kts | 88° |
| 2026-05-07 05:20 | 1.35748 | 105.55297 | 18319 ft | 431 kts | 88° |
| 2026-05-07 05:20 | 1.35819 | 105.58296 | 18510 ft | 433 kts | 88° |
| 2026-05-07 05:20 | 1.35891 | 105.61306 | 18708 ft | 434 kts | 88° |
| 2026-05-07 05:21 | 1.35963 | 105.64328 | 18919 ft | 435 kts | 88° |
| 2026-05-07 05:21 | 1.36132 | 105.70393 | 19308 ft | 437 kts | 86° |
| 2026-05-07 05:21 | 1.36576 | 105.73394 | 19499 ft | 439 kts | 76° |
| 2026-05-07 05:22 | 1.37616 | 105.76261 | 19686 ft | 440 kts | 64° |
| 2026-05-07 05:22 | 1.39237 | 105.78850 | 19854 ft | 442 kts | 52° |
| 2026-05-07 05:22 | 1.41384 | 105.81057 | 20028 ft | 445 kts | 40° |
| 2026-05-07 05:22 | 1.43939 | 105.82813 | 20218 ft | 447 kts | 32° |
| 2026-05-07 05:23 | 1.46653 | 105.84343 | 20384 ft | 449 kts | 29° |
| 2026-05-07 05:23 | 1.49424 | 105.85775 | 20611 ft | 449 kts | 28° |
| 2026-05-07 05:23 | 1.52224 | 105.87172 | 20812 ft | 450 kts | 27° |
| 2026-05-07 05:23 | 1.55026 | 105.88566 | 20995 ft | 452 kts | 28° |
| 2026-05-07 05:24 | 1.57843 | 105.89981 | 21181 ft | 453 kts | 28° |
| 2026-05-07 05:24 | 1.60654 | 105.91410 | 21361 ft | 454 kts | 28° |
| 2026-05-07 05:24 | 1.63465 | 105.92854 | 21582 ft | 455 kts | 28° |
| 2026-05-07 05:24 | 1.66282 | 105.94308 | 21760 ft | 457 kts | 28° |
| 2026-05-07 05:25 | 1.69109 | 105.95772 | 21962 ft | 458 kts | 28° |
| 2026-05-07 05:25 | 1.71943 | 105.97242 | 22142 ft | 459 kts | 28° |
| 2026-05-07 05:25 | 1.74777 | 105.98711 | 22358 ft | 460 kts | 28° |
| 2026-05-07 05:25 | 1.77623 | 106.00186 | 22539 ft | 462 kts | 28° |
| 2026-05-07 05:26 | 1.80475 | 106.01664 | 22735 ft | 463 kts | 28° |
| 2026-05-07 05:26 | 1.83304 | 106.03129 | 22925 ft | 464 kts | 28° |
| 2026-05-07 05:26 | 1.86215 | 106.04636 | 23170 ft | 464 kts | 28° |
| 2026-05-07 05:26 | 1.89045 | 106.06102 | 23376 ft | 465 kts | 28° |
| 2026-05-07 05:27 | 1.91924 | 106.07593 | 23531 ft | 467 kts | 29° |
| 2026-05-07 05:27 | 1.94813 | 106.09094 | 23679 ft | 469 kts | 28° |
| 2026-05-07 05:27 | 1.97712 | 106.10594 | 23825 ft | 470 kts | 28° |
| 2026-05-07 05:27 | 2.00629 | 106.12101 | 23997 ft | 472 kts | 28° |
| 2026-05-07 05:28 | 2.03546 | 106.13606 | 24140 ft | 473 kts | 28° |
| 2026-05-07 05:28 | 2.06477 | 106.15121 | 24328 ft | 475 kts | 28° |
| 2026-05-07 05:28 | 2.09410 | 106.16637 | 24493 ft | 476 kts | 28° |
| 2026-05-07 05:28 | 2.12359 | 106.18161 | 24662 ft | 477 kts | 28° |
| 2026-05-07 05:29 | 2.15309 | 106.19687 | 24841 ft | 479 kts | 28° |
| 2026-05-07 05:29 | 2.18277 | 106.21223 | 25019 ft | 480 kts | 28° |
| 2026-05-07 05:29 | 2.21249 | 106.22761 | 25198 ft | 482 kts | 28° |
| 2026-05-07 05:29 | 2.24235 | 106.24306 | 25354 ft | 484 kts | 28° |
| 2026-05-07 05:30 | 2.27233 | 106.25857 | 25547 ft | 486 kts | 28° |
| 2026-05-07 05:30 | 2.30233 | 106.27410 | 25751 ft | 487 kts | 28° |
| 2026-05-07 05:30 | 2.33249 | 106.28970 | 25942 ft | 489 kts | 28° |
| 2026-05-07 05:30 | 2.36271 | 106.30534 | 26156 ft | 490 kts | 28° |
| 2026-05-07 05:31 | 2.39304 | 106.32104 | 26351 ft | 492 kts | 28° |
| 2026-05-07 05:31 | 2.42352 | 106.33682 | 26559 ft | 494 kts | 28° |
| 2026-05-07 05:31 | 2.45410 | 106.35265 | 26768 ft | 495 kts | 29° |
| 2026-05-07 05:31 | 2.48423 | 106.36824 | 27040 ft | 495 kts | 29° |
| 2026-05-07 05:32 | 2.51488 | 106.38410 | 27248 ft | 497 kts | 29° |
| 2026-05-07 05:32 | 2.54564 | 106.40003 | 27448 ft | 499 kts | 29° |
| 2026-05-07 05:32 | 2.57646 | 106.41603 | 27654 ft | 500 kts | 29° |
| 2026-05-07 05:32 | 2.60742 | 106.43211 | 27859 ft | 502 kts | 29° |
| 2026-05-07 05:33 | 2.63854 | 106.44822 | 28045 ft | 504 kts | 29° |
| 2026-05-07 05:33 | 2.66972 | 106.46435 | 28266 ft | 505 kts | 29° |
| 2026-05-07 05:33 | 2.70105 | 106.48056 | 28451 ft | 507 kts | 29° |
| 2026-05-07 05:33 | 2.73238 | 106.49677 | 28637 ft | 509 kts | 29° |
| 2026-05-07 05:34 | 2.76380 | 106.51307 | 28907 ft | 508 kts | 29° |
| 2026-05-07 05:34 | 2.79518 | 106.52935 | 29171 ft | 508 kts | 29° |
| 2026-05-07 05:34 | 2.82657 | 106.54559 | 29437 ft | 508 kts | 29° |
| 2026-05-07 05:34 | 2.85791 | 106.56182 | 29709 ft | 507 kts | 29° |
| 2026-05-07 05:35 | 2.88927 | 106.57808 | 29944 ft | 507 kts | 29° |
| 2026-05-07 05:35 | 2.92060 | 106.59428 | 30149 ft | 507 kts | 29° |
| 2026-05-07 05:35 | 2.95184 | 106.61042 | 30365 ft | 506 kts | 29° |
| 2026-05-07 05:35 | 2.98321 | 106.62662 | 30569 ft | 506 kts | 29° |
| 2026-05-07 05:36 | 3.01404 | 106.64256 | 30770 ft | 506 kts | 29° |
| 2026-05-07 05:36 | 3.04537 | 106.65877 | 30964 ft | 506 kts | 29° |
| 2026-05-07 05:36 | 3.07657 | 106.67491 | 31158 ft | 505 kts | 29° |
| 2026-05-07 05:36 | 3.10777 | 106.69107 | 31353 ft | 505 kts | 29° |
| 2026-05-07 05:37 | 3.13904 | 106.70726 | 31562 ft | 505 kts | 29° |
| 2026-05-07 05:37 | 3.17017 | 106.72337 | 31752 ft | 504 kts | 29° |
| 2026-05-07 05:37 | 3.20138 | 106.73954 | 31824 ft | 507 kts | 29° |
| 2026-05-07 05:38 | 3.26437 | 106.77217 | 31826 ft | 511 kts | 29° |
| 2026-05-07 05:38 | 3.32742 | 106.80482 | 31826 ft | 511 kts | 29° |
| 2026-05-07 05:39 | 3.39067 | 106.83758 | 31825 ft | 511 kts | 29° |
| 2026-05-07 05:39 | 3.45379 | 106.87028 | 31823 ft | 511 kts | 29° |
| 2026-05-07 05:40 | 3.51650 | 106.90278 | 31823 ft | 511 kts | 29° |
| 2026-05-07 05:40 | 3.57790 | 106.93826 | 31825 ft | 509 kts | 36° |
| 2026-05-07 05:41 | 3.63623 | 106.97846 | 31823 ft | 509 kts | 37° |
| 2026-05-07 05:41 | 3.69404 | 107.01939 | 31823 ft | 509 kts | 37° |
| 2026-05-07 05:42 | 3.75184 | 107.06042 | 31824 ft | 509 kts | 37° |
| 2026-05-07 05:42 | 3.80976 | 107.10141 | 31824 ft | 509 kts | 37° |
| 2026-05-07 05:43 | 3.86757 | 107.14225 | 31821 ft | 509 kts | 37° |
| 2026-05-07 05:43 | 3.92553 | 107.18319 | 31821 ft | 509 kts | 37° |
| 2026-05-07 05:44 | 3.98348 | 107.22414 | 31821 ft | 509 kts | 37° |
| 2026-05-07 05:44 | 4.04141 | 107.26508 | 31821 ft | 509 kts | 37° |
| 2026-05-07 05:45 | 4.09928 | 107.30599 | 31821 ft | 509 kts | 37° |
| 2026-05-07 05:45 | 4.15721 | 107.34695 | 31821 ft | 509 kts | 37° |
| 2026-05-07 05:46 | 4.21512 | 107.38790 | 31823 ft | 509 kts | 37° |
| 2026-05-07 05:46 | 4.27300 | 107.42884 | 31823 ft | 509 kts | 37° |
| 2026-05-07 05:47 | 4.33084 | 107.46975 | 31823 ft | 509 kts | 37° |
| 2026-05-07 05:47 | 4.38826 | 107.51039 | 31821 ft | 509 kts | 37° |
| 2026-05-07 05:48 | 4.44611 | 107.55133 | 31821 ft | 509 kts | 37° |
| 2026-05-07 05:48 | 4.50387 | 107.59221 | 31821 ft | 509 kts | 37° |
| 2026-05-07 05:49 | 4.56174 | 107.63318 | 31822 ft | 509 kts | 37° |
| 2026-05-07 05:49 | 4.61957 | 107.67413 | 31821 ft | 509 kts | 37° |
| 2026-05-07 05:50 | 4.67737 | 107.71507 | 31819 ft | 509 kts | 37° |
| 2026-05-07 05:50 | 4.73513 | 107.75599 | 31821 ft | 509 kts | 37° |
| 2026-05-07 05:51 | 4.79295 | 107.79696 | 31821 ft | 509 kts | 37° |
| 2026-05-07 05:51 | 4.85077 | 107.83793 | 31821 ft | 509 kts | 37° |
| 2026-05-07 05:52 | 4.90821 | 107.87865 | 31818 ft | 509 kts | 37° |
| 2026-05-07 05:52 | 4.96598 | 107.91962 | 31818 ft | 509 kts | 37° |
| 2026-05-07 05:53 | 5.02379 | 107.96054 | 31818 ft | 509 kts | 37° |
| 2026-05-07 05:53 | 5.08185 | 108.00127 | 31818 ft | 509 kts | 36° |
| 2026-05-07 05:54 | 5.13999 | 108.04201 | 31818 ft | 510 kts | 36° |
| 2026-05-07 05:54 | 5.19812 | 108.08282 | 31817 ft | 510 kts | 36° |
| 2026-05-07 05:55 | 5.25626 | 108.12368 | 31815 ft | 510 kts | 36° |
| 2026-05-07 05:55 | 5.31442 | 108.16458 | 31815 ft | 510 kts | 36° |
| 2026-05-07 05:56 | 5.36277 | 108.19857 | 31816 ft | 510 kts | 36° |
| 2026-05-07 05:56 | 5.42092 | 108.23947 | 31815 ft | 510 kts | 36° |
| 2026-05-07 05:57 | 5.47896 | 108.28031 | 31813 ft | 508 kts | 36° |
| 2026-05-07 05:57 | 5.53688 | 108.32106 | 31812 ft | 508 kts | 36° |
| 2026-05-07 05:58 | 5.59468 | 108.36174 | 31813 ft | 508 kts | 36° |
| 2026-05-07 05:58 | 5.65250 | 108.40244 | 31812 ft | 508 kts | 36° |
| 2026-05-07 05:59 | 5.71034 | 108.44318 | 31813 ft | 508 kts | 36° |
| 2026-05-07 05:59 | 5.76822 | 108.48395 | 31812 ft | 508 kts | 36° |
| 2026-05-07 06:00 | 5.82594 | 108.52461 | 31814 ft | 506 kts | 36° |
| 2026-05-07 06:00 | 5.88366 | 108.56529 | 31815 ft | 506 kts | 36° |
| 2026-05-07 06:01 | 5.94124 | 108.60588 | 31812 ft | 506 kts | 36° |
| 2026-05-07 06:01 | 5.99882 | 108.64648 | 31809 ft | 506 kts | 36° |
| 2026-05-07 06:02 | 6.05609 | 108.68687 | 31810 ft | 506 kts | 36° |
| 2026-05-07 06:02 | 6.11370 | 108.72751 | 31812 ft | 506 kts | 36° |
| 2026-05-07 06:03 | 6.17132 | 108.76817 | 31809 ft | 506 kts | 36° |
| 2026-05-07 06:03 | 6.22897 | 108.80886 | 31809 ft | 506 kts | 36° |
| 2026-05-07 06:04 | 6.28654 | 108.84951 | 31813 ft | 506 kts | 36° |
| 2026-05-07 06:04 | 6.34404 | 108.89012 | 31812 ft | 506 kts | 36° |
| 2026-05-07 06:05 | 6.40166 | 108.93082 | 31814 ft | 506 kts | 36° |
| 2026-05-07 06:05 | 6.45925 | 108.97152 | 31813 ft | 506 kts | 36° |
| 2026-05-07 06:06 | 6.51680 | 109.01219 | 31810 ft | 506 kts | 36° |
| 2026-05-07 06:06 | 6.57448 | 109.05298 | 31810 ft | 507 kts | 36° |
| 2026-05-07 06:07 | 6.63218 | 109.09379 | 31810 ft | 507 kts | 36° |
| 2026-05-07 06:07 | 6.68989 | 109.13461 | 31809 ft | 507 kts | 36° |
| 2026-05-07 06:08 | 6.74756 | 109.17542 | 31811 ft | 507 kts | 36° |
| 2026-05-07 06:08 | 6.80478 | 109.21593 | 31809 ft | 507 kts | 36° |
| 2026-05-07 06:09 | 6.86254 | 109.25682 | 31813 ft | 506 kts | 36° |
| 2026-05-07 06:09 | 6.92017 | 109.29765 | 31812 ft | 506 kts | 36° |
| 2026-05-07 06:10 | 6.97775 | 109.33844 | 31814 ft | 506 kts | 36° |
| 2026-05-07 06:10 | 7.03534 | 109.37926 | 31812 ft | 506 kts | 36° |
| 2026-05-07 06:11 | 7.09296 | 109.42010 | 31810 ft | 506 kts | 36° |
| 2026-05-07 06:11 | 7.15060 | 109.46098 | 31809 ft | 506 kts | 36° |
| 2026-05-07 06:12 | 7.20816 | 109.50181 | 31808 ft | 506 kts | 36° |
| 2026-05-07 06:12 | 7.26581 | 109.54272 | 31810 ft | 506 kts | 36° |
| 2026-05-07 06:13 | 7.32347 | 109.58365 | 31813 ft | 506 kts | 36° |
| 2026-05-07 06:13 | 7.38107 | 109.62455 | 31812 ft | 506 kts | 36° |
| 2026-05-07 06:14 | 7.43820 | 109.66513 | 31810 ft | 506 kts | 36° |
| 2026-05-07 06:14 | 7.49594 | 109.70616 | 31809 ft | 506 kts | 36° |
| 2026-05-07 06:15 | 7.55353 | 109.74709 | 31809 ft | 506 kts | 36° |
| 2026-05-07 06:15 | 7.61113 | 109.78804 | 31810 ft | 506 kts | 36° |
| 2026-05-07 06:16 | 7.66868 | 109.82897 | 31810 ft | 506 kts | 36° |
| 2026-05-07 06:16 | 7.72620 | 109.86990 | 31810 ft | 506 kts | 36° |
| 2026-05-07 06:17 | 7.78368 | 109.91081 | 31807 ft | 506 kts | 36° |
| 2026-05-07 06:17 | 7.84123 | 109.95178 | 31807 ft | 506 kts | 36° |
| 2026-05-07 06:18 | 7.89873 | 109.99274 | 31811 ft | 506 kts | 36° |
| 2026-05-07 06:18 | 7.95626 | 110.03372 | 31812 ft | 506 kts | 36° |
| 2026-05-07 06:19 | 8.01373 | 110.07468 | 31813 ft | 506 kts | 36° |
| 2026-05-07 06:19 | 8.07085 | 110.11541 | 31812 ft | 506 kts | 36° |
| 2026-05-07 06:20 | 8.12834 | 110.15641 | 31812 ft | 505 kts | 36° |
| 2026-05-07 06:20 | 8.18572 | 110.19736 | 31812 ft | 505 kts | 36° |
| 2026-05-07 06:21 | 8.24308 | 110.23836 | 31816 ft | 505 kts | 36° |
| 2026-05-07 06:21 | 8.30028 | 110.27955 | 31815 ft | 505 kts | 36° |
| 2026-05-07 06:22 | 8.35745 | 110.32080 | 31813 ft | 505 kts | 36° |
| 2026-05-07 06:22 | 8.44327 | 110.38268 | 31815 ft | 505 kts | 36° |
| 2026-05-07 06:23 | 8.50043 | 110.42389 | 31816 ft | 505 kts | 36° |
| 2026-05-07 06:23 | 8.55759 | 110.46512 | 31816 ft | 505 kts | 36° |
| 2026-05-07 06:24 | 8.61479 | 110.50640 | 31815 ft | 505 kts | 36° |
| 2026-05-07 06:24 | 8.67202 | 110.54770 | 31816 ft | 505 kts | 36° |
| 2026-05-07 06:25 | 8.72916 | 110.58896 | 31816 ft | 505 kts | 36° |
| 2026-05-07 06:25 | 8.78633 | 110.63026 | 31818 ft | 505 kts | 36° |
| 2026-05-07 06:26 | 8.84345 | 110.67155 | 31816 ft | 505 kts | 36° |
| 2026-05-07 06:26 | 8.90023 | 110.71259 | 31815 ft | 505 kts | 36° |
| 2026-05-07 06:27 | 8.95735 | 110.75391 | 31816 ft | 505 kts | 36° |
| 2026-05-07 06:27 | 9.01443 | 110.79521 | 31816 ft | 504 kts | 36° |
| 2026-05-07 06:28 | 9.07152 | 110.83653 | 31818 ft | 504 kts | 36° |
| 2026-05-07 06:28 | 9.12854 | 110.87781 | 31818 ft | 504 kts | 36° |
| 2026-05-07 06:29 | 9.18531 | 110.91894 | 31815 ft | 504 kts | 36° |
| 2026-05-07 06:29 | 9.24249 | 110.96038 | 31815 ft | 504 kts | 35° |
| 2026-05-07 06:30 | 9.29946 | 111.00168 | 31816 ft | 504 kts | 35° |
| 2026-05-07 06:30 | 9.35645 | 111.04301 | 31818 ft | 504 kts | 35° |
| 2026-05-07 06:31 | 9.41312 | 111.08413 | 31818 ft | 504 kts | 35° |
| 2026-05-07 06:31 | 9.47008 | 111.12548 | 31818 ft | 504 kts | 36° |
| 2026-05-07 06:32 | 9.52713 | 111.16691 | 31816 ft | 504 kts | 35° |
| 2026-05-07 06:32 | 9.58409 | 111.20831 | 31816 ft | 505 kts | 35° |
| 2026-05-07 06:33 | 9.64115 | 111.24978 | 31816 ft | 505 kts | 35° |
| 2026-05-07 06:33 | 9.69819 | 111.29124 | 31816 ft | 505 kts | 35° |
| 2026-05-07 06:34 | 9.75527 | 111.33275 | 31818 ft | 505 kts | 35° |
| 2026-05-07 06:34 | 9.81227 | 111.37424 | 31818 ft | 505 kts | 35° |
| 2026-05-07 06:35 | 9.86921 | 111.41569 | 31821 ft | 505 kts | 35° |
| 2026-05-07 06:35 | 9.92641 | 111.45736 | 31820 ft | 505 kts | 35° |
| 2026-05-07 06:36 | 9.98338 | 111.49887 | 31820 ft | 505 kts | 35° |
| 2026-05-07 06:36 | 10.04055 | 111.54055 | 31823 ft | 505 kts | 35° |
| 2026-05-07 06:37 | 10.09765 | 111.58220 | 31820 ft | 505 kts | 35° |
| 2026-05-07 06:37 | 10.15475 | 111.62386 | 31820 ft | 505 kts | 35° |
| 2026-05-07 06:38 | 10.21182 | 111.66552 | 31820 ft | 506 kts | 34° |
| 2026-05-07 06:38 | 10.26901 | 111.70729 | 31826 ft | 507 kts | 35° |
| 2026-05-07 06:39 | 10.32633 | 111.74917 | 31823 ft | 507 kts | 34° |
| 2026-05-07 06:39 | 10.38349 | 111.79095 | 31827 ft | 507 kts | 34° |
| 2026-05-07 06:40 | 10.44041 | 111.83258 | 31823 ft | 506 kts | 34° |
| 2026-05-07 06:40 | 10.49753 | 111.87438 | 31823 ft | 506 kts | 34° |
| 2026-05-07 06:41 | 10.55470 | 111.91622 | 31823 ft | 506 kts | 34° |
| 2026-05-07 06:41 | 10.61189 | 111.95810 | 31823 ft | 507 kts | 34° |
| 2026-05-07 06:42 | 10.66906 | 112.00000 | 31824 ft | 507 kts | 34° |
| 2026-05-07 06:42 | 10.72626 | 112.04192 | 31824 ft | 507 kts | 34° |
| 2026-05-07 06:43 | 10.78347 | 112.08388 | 31826 ft | 507 kts | 34° |
| 2026-05-07 06:43 | 10.84060 | 112.12580 | 31826 ft | 507 kts | 34° |
| 2026-05-07 06:44 | 10.88809 | 112.16067 | 31826 ft | 506 kts | 34° |
| 2026-05-07 06:44 | 10.94519 | 112.20260 | 31826 ft | 506 kts | 34° |
| 2026-05-07 06:45 | 11.00225 | 112.24445 | 31827 ft | 506 kts | 34° |
| 2026-05-07 06:45 | 11.05942 | 112.28619 | 31826 ft | 506 kts | 34° |
| 2026-05-07 06:46 | 11.11660 | 112.32798 | 31826 ft | 506 kts | 34° |
| 2026-05-07 06:46 | 11.17373 | 112.36979 | 31829 ft | 506 kts | 34° |
| 2026-05-07 06:47 | 11.23090 | 112.41166 | 31828 ft | 506 kts | 34° |
| 2026-05-07 06:47 | 11.28803 | 112.45352 | 31828 ft | 506 kts | 34° |
| 2026-05-07 06:48 | 11.34516 | 112.49541 | 31828 ft | 506 kts | 34° |
| 2026-05-07 06:48 | 11.40226 | 112.53730 | 31829 ft | 505 kts | 34° |
| 2026-05-07 06:49 | 11.45895 | 112.57890 | 31828 ft | 505 kts | 34° |
| 2026-05-07 06:49 | 11.51597 | 112.62089 | 31829 ft | 506 kts | 34° |
| 2026-05-07 06:50 | 11.57307 | 112.66295 | 31829 ft | 506 kts | 34° |
| 2026-05-07 06:50 | 11.63017 | 112.70503 | 31828 ft | 506 kts | 34° |
| 2026-05-07 06:51 | 11.68728 | 112.74713 | 31829 ft | 506 kts | 34° |
| 2026-05-07 06:51 | 11.74436 | 112.78925 | 31828 ft | 506 kts | 34° |
| 2026-05-07 06:52 | 11.80145 | 112.83140 | 31833 ft | 506 kts | 34° |
| 2026-05-07 06:52 | 11.85857 | 112.87360 | 31832 ft | 507 kts | 34° |
| 2026-05-07 06:53 | 11.91566 | 112.91578 | 31831 ft | 506 kts | 34° |
| 2026-05-07 06:53 | 11.97272 | 112.95798 | 31831 ft | 506 kts | 34° |
| 2026-05-07 06:54 | 12.02977 | 113.00019 | 31829 ft | 506 kts | 34° |
| 2026-05-07 06:54 | 12.08686 | 113.04245 | 31832 ft | 506 kts | 34° |
| 2026-05-07 06:55 | 12.14385 | 113.08465 | 31832 ft | 506 kts | 34° |
| 2026-05-07 06:55 | 12.20057 | 113.12669 | 31835 ft | 506 kts | 34° |
| 2026-05-07 06:56 | 12.25761 | 113.16898 | 31833 ft | 506 kts | 34° |
| 2026-05-07 06:56 | 12.31462 | 113.21127 | 31837 ft | 506 kts | 34° |
| 2026-05-07 06:57 | 12.37155 | 113.25354 | 31838 ft | 506 kts | 34° |
| 2026-05-07 06:57 | 12.42859 | 113.29591 | 31837 ft | 506 kts | 34° |
| 2026-05-07 06:58 | 12.48562 | 113.33814 | 31839 ft | 506 kts | 34° |
| 2026-05-07 06:58 | 12.54260 | 113.38036 | 31840 ft | 506 kts | 34° |
| 2026-05-07 06:59 | 12.59962 | 113.42267 | 31839 ft | 506 kts | 34° |
| 2026-05-07 06:59 | 12.65658 | 113.46498 | 31840 ft | 506 kts | 34° |
| 2026-05-07 07:00 | 12.71360 | 113.50736 | 31839 ft | 506 kts | 34° |
| 2026-05-07 07:00 | 12.77062 | 113.54976 | 31840 ft | 506 kts | 34° |
| 2026-05-07 07:01 | 12.82752 | 113.59209 | 31840 ft | 506 kts | 34° |
| 2026-05-07 07:01 | 12.88415 | 113.63425 | 31840 ft | 506 kts | 34° |
| 2026-05-07 07:02 | 12.94115 | 113.67670 | 31840 ft | 506 kts | 34° |
| 2026-05-07 07:02 | 12.99806 | 113.71912 | 31840 ft | 506 kts | 34° |
| 2026-05-07 07:03 | 13.05501 | 113.76159 | 31842 ft | 506 kts | 34° |
| 2026-05-07 07:03 | 13.11195 | 113.80407 | 31839 ft | 506 kts | 34° |
| 2026-05-07 07:04 | 13.16895 | 113.84663 | 31840 ft | 506 kts | 34° |
| 2026-05-07 07:04 | 13.22587 | 113.88915 | 31843 ft | 506 kts | 34° |
| 2026-05-07 07:05 | 13.28278 | 113.93169 | 31843 ft | 506 kts | 34° |
| 2026-05-07 07:05 | 13.33935 | 113.97400 | 31842 ft | 506 kts | 34° |
| 2026-05-07 07:06 | 13.39623 | 114.01656 | 31843 ft | 506 kts | 34° |
| 2026-05-07 07:06 | 13.45309 | 114.05914 | 31843 ft | 506 kts | 34° |
| 2026-05-07 07:07 | 13.50999 | 114.10177 | 31845 ft | 506 kts | 34° |
| 2026-05-07 07:07 | 13.56685 | 114.14440 | 31845 ft | 506 kts | 34° |
| 2026-05-07 07:08 | 13.62369 | 114.18704 | 31828 ft | 506 kts | 34° |
| 2026-05-07 07:08 | 13.68058 | 114.22975 | 31847 ft | 506 kts | 34° |
| 2026-05-07 07:09 | 13.73737 | 114.27239 | 31848 ft | 506 kts | 34° |
| 2026-05-07 07:09 | 13.79418 | 114.31509 | 31833 ft | 506 kts | 34° |
| 2026-05-07 07:10 | 13.85094 | 114.35778 | 31829 ft | 506 kts | 34° |
| 2026-05-07 07:10 | 13.90777 | 114.40054 | 31847 ft | 506 kts | 34° |
| 2026-05-07 07:11 | 13.96386 | 114.44360 | 31973 ft | 506 kts | 39° |
| 2026-05-07 07:11 | 13.98943 | 114.46835 | 32333 ft | 503 kts | 43° |
| 2026-05-07 07:11 | 14.01392 | 114.49396 | 32671 ft | 500 kts | 44° |
| 2026-05-07 07:12 | 14.03791 | 114.51970 | 32925 ft | 499 kts | 44° |
| 2026-05-07 07:12 | 14.06175 | 114.54565 | 33165 ft | 498 kts | 45° |
| 2026-05-07 07:12 | 14.08550 | 114.57164 | 33383 ft | 497 kts | 45° |
| 2026-05-07 07:12 | 14.10916 | 114.59757 | 33593 ft | 496 kts | 45° |
| 2026-05-07 07:13 | 14.13279 | 114.62345 | 33803 ft | 495 kts | 45° |
| 2026-05-07 07:13 | 14.15642 | 114.64929 | 33966 ft | 495 kts | 45° |
| 2026-05-07 07:13 | 14.18003 | 114.67507 | 34122 ft | 494 kts | 45° |
| 2026-05-07 07:13 | 14.20356 | 114.70076 | 34263 ft | 494 kts | 45° |
| 2026-05-07 07:14 | 14.22720 | 114.72657 | 34422 ft | 494 kts | 45° |
| 2026-05-07 07:14 | 14.25077 | 114.75230 | 34557 ft | 493 kts | 45° |
| 2026-05-07 07:14 | 14.27433 | 114.77802 | 34707 ft | 493 kts | 45° |
| 2026-05-07 07:14 | 14.29787 | 114.80373 | 34823 ft | 493 kts | 45° |
| 2026-05-07 07:15 | 14.34517 | 114.85542 | 34845 ft | 498 kts | 45° |
| 2026-05-07 07:15 | 14.39278 | 114.90750 | 34845 ft | 499 kts | 45° |
| 2026-05-07 07:16 | 14.44041 | 114.95964 | 34845 ft | 498 kts | 45° |
| 2026-05-07 07:16 | 14.48794 | 115.01171 | 34849 ft | 498 kts | 45° |
| 2026-05-07 07:17 | 14.53548 | 115.06381 | 34845 ft | 499 kts | 45° |
| 2026-05-07 07:17 | 14.58303 | 115.11596 | 34845 ft | 499 kts | 45° |
| 2026-05-07 07:18 | 14.63060 | 115.16818 | 34845 ft | 498 kts | 45° |
| 2026-05-07 07:18 | 14.67808 | 115.22032 | 34845 ft | 498 kts | 45° |
| 2026-05-07 07:19 | 14.72555 | 115.27248 | 34845 ft | 498 kts | 45° |
| 2026-05-07 07:19 | 14.77269 | 115.32432 | 34848 ft | 498 kts | 45° |
| 2026-05-07 07:20 | 14.82017 | 115.37658 | 34848 ft | 499 kts | 45° |
| 2026-05-07 07:20 | 14.86770 | 115.42891 | 34851 ft | 498 kts | 45° |
| 2026-05-07 07:21 | 14.91505 | 115.48110 | 34848 ft | 497 kts | 45° |
| 2026-05-07 07:21 | 14.96240 | 115.53332 | 34851 ft | 497 kts | 45° |
| 2026-05-07 07:22 | 15.00973 | 115.58554 | 34852 ft | 497 kts | 45° |
| 2026-05-07 07:22 | 15.05703 | 115.63778 | 34851 ft | 497 kts | 45° |
| 2026-05-07 07:23 | 15.10431 | 115.69002 | 34850 ft | 498 kts | 45° |
| 2026-05-07 07:23 | 15.15160 | 115.74232 | 34850 ft | 497 kts | 45° |
| 2026-05-07 07:24 | 15.19876 | 115.79452 | 34847 ft | 496 kts | 45° |
| 2026-05-07 07:24 | 15.24590 | 115.84672 | 34849 ft | 496 kts | 45° |
| 2026-05-07 07:25 | 15.31655 | 115.92502 | 34851 ft | 496 kts | 45° |
| 2026-05-07 07:26 | 15.36364 | 115.97725 | 34848 ft | 496 kts | 45° |
| 2026-05-07 07:26 | 15.41047 | 116.02924 | 34851 ft | 497 kts | 45° |
| 2026-05-07 07:27 | 15.45761 | 116.08162 | 34850 ft | 496 kts | 45° |
| 2026-05-07 07:27 | 15.50460 | 116.13385 | 34851 ft | 496 kts | 45° |
| 2026-05-07 07:28 | 15.55166 | 116.18621 | 34852 ft | 496 kts | 45° |
| 2026-05-07 07:28 | 15.59868 | 116.23856 | 34851 ft | 496 kts | 45° |
| 2026-05-07 07:29 | 15.64570 | 116.29093 | 34852 ft | 497 kts | 45° |
| 2026-05-07 07:29 | 15.69281 | 116.34346 | 34853 ft | 497 kts | 45° |
| 2026-05-07 07:30 | 15.73990 | 116.39600 | 34851 ft | 497 kts | 45° |
| 2026-05-07 07:30 | 15.78695 | 116.44854 | 34851 ft | 497 kts | 45° |
| 2026-05-07 07:31 | 15.83401 | 116.50112 | 34851 ft | 497 kts | 45° |
| 2026-05-07 07:31 | 15.88101 | 116.55368 | 34851 ft | 496 kts | 45° |
| 2026-05-07 07:32 | 15.92802 | 116.60628 | 34851 ft | 497 kts | 45° |
| 2026-05-07 07:32 | 15.97514 | 116.65904 | 34853 ft | 498 kts | 45° |
| 2026-05-07 07:33 | 16.02196 | 116.71152 | 34851 ft | 498 kts | 45° |
| 2026-05-07 07:33 | 16.06905 | 116.76434 | 34851 ft | 498 kts | 45° |
| 2026-05-07 07:34 | 16.11616 | 116.81720 | 34851 ft | 498 kts | 45° |
| 2026-05-07 07:34 | 16.16322 | 116.87006 | 34854 ft | 498 kts | 45° |
| 2026-05-07 07:35 | 16.21031 | 116.92298 | 34857 ft | 499 kts | 45° |
| 2026-05-07 07:35 | 16.25740 | 116.97596 | 34856 ft | 499 kts | 45° |
| 2026-05-07 07:36 | 16.29659 | 117.02008 | 34858 ft | 499 kts | 45° |
| 2026-05-07 07:36 | 16.34404 | 117.07353 | 34856 ft | 499 kts | 45° |
| 2026-05-07 07:37 | 16.39084 | 117.12629 | 34853 ft | 499 kts | 45° |
| 2026-05-07 07:37 | 16.43797 | 117.17947 | 34856 ft | 499 kts | 45° |
| 2026-05-07 07:38 | 16.48505 | 117.23265 | 34856 ft | 499 kts | 46° |
| 2026-05-07 07:38 | 16.53215 | 117.28588 | 34856 ft | 499 kts | 45° |
| 2026-05-07 07:39 | 16.57926 | 117.33914 | 34856 ft | 499 kts | 45° |
| 2026-05-07 07:39 | 16.62625 | 117.39231 | 34853 ft | 499 kts | 45° |
| 2026-05-07 07:40 | 16.67328 | 117.44558 | 34853 ft | 499 kts | 45° |
| 2026-05-07 07:40 | 16.72031 | 117.49890 | 34851 ft | 499 kts | 45° |
| 2026-05-07 07:41 | 16.76730 | 117.55220 | 34854 ft | 499 kts | 45° |
| 2026-05-07 07:41 | 16.81429 | 117.60556 | 34853 ft | 499 kts | 45° |
| 2026-05-07 07:42 | 16.86102 | 117.65866 | 34853 ft | 499 kts | 45° |
| 2026-05-07 07:42 | 16.90801 | 117.71210 | 34853 ft | 499 kts | 45° |
| 2026-05-07 07:43 | 16.95494 | 117.76551 | 34853 ft | 499 kts | 45° |
| 2026-05-07 07:43 | 17.00193 | 117.81903 | 34853 ft | 499 kts | 46° |
| 2026-05-07 07:44 | 17.04883 | 117.87249 | 34858 ft | 499 kts | 46° |
| 2026-05-07 07:44 | 17.09572 | 117.92598 | 34856 ft | 499 kts | 46° |
| 2026-05-07 07:45 | 17.14258 | 117.97948 | 34856 ft | 499 kts | 46° |
| 2026-05-07 07:45 | 17.18946 | 118.03305 | 34856 ft | 499 kts | 46° |
| 2026-05-07 07:46 | 17.23632 | 118.08664 | 34855 ft | 499 kts | 46° |
| 2026-05-07 07:46 | 17.28320 | 118.14029 | 34856 ft | 499 kts | 46° |
| 2026-05-07 07:47 | 17.33006 | 118.19397 | 34857 ft | 500 kts | 46° |
| 2026-05-07 07:47 | 17.37694 | 118.24771 | 34856 ft | 500 kts | 46° |
| 2026-05-07 07:48 | 17.42350 | 118.30113 | 34856 ft | 500 kts | 46° |
| 2026-05-07 07:48 | 17.47037 | 118.35494 | 34856 ft | 500 kts | 46° |
| 2026-05-07 07:49 | 17.51726 | 118.40882 | 34857 ft | 500 kts | 46° |
| 2026-05-07 07:49 | 17.56415 | 118.46275 | 34862 ft | 500 kts | 46° |
| 2026-05-07 07:50 | 17.61102 | 118.51672 | 34856 ft | 501 kts | 46° |
| 2026-05-07 07:50 | 17.65794 | 118.57076 | 34856 ft | 501 kts | 46° |
| 2026-05-07 07:51 | 17.70487 | 118.62488 | 34856 ft | 501 kts | 46° |
| 2026-05-07 07:51 | 17.75174 | 118.67896 | 34856 ft | 501 kts | 46° |
| 2026-05-07 07:52 | 17.79861 | 118.73309 | 34858 ft | 501 kts | 46° |
| 2026-05-07 07:52 | 17.84521 | 118.78696 | 34854 ft | 502 kts | 45° |
| 2026-05-07 07:53 | 17.89214 | 118.84126 | 34858 ft | 502 kts | 45° |
| 2026-05-07 07:53 | 17.93905 | 118.89558 | 34858 ft | 502 kts | 45° |
| 2026-05-07 07:54 | 17.98594 | 118.94991 | 34858 ft | 502 kts | 46° |
| 2026-05-07 07:54 | 18.03282 | 119.00432 | 34854 ft | 502 kts | 46° |
| 2026-05-07 07:55 | 18.07970 | 119.05873 | 34859 ft | 502 kts | 45° |
| 2026-05-07 07:55 | 18.12655 | 119.11316 | 34857 ft | 502 kts | 45° |
| 2026-05-07 07:56 | 18.17343 | 119.16768 | 34858 ft | 502 kts | 45° |
| 2026-05-07 07:56 | 18.22029 | 119.22222 | 34859 ft | 502 kts | 45° |
| 2026-05-07 07:57 | 18.26714 | 119.27679 | 34855 ft | 503 kts | 46° |
| 2026-05-07 07:57 | 18.31402 | 119.33146 | 34857 ft | 503 kts | 46° |
| 2026-05-07 07:58 | 18.36086 | 119.38613 | 34853 ft | 503 kts | 45° |
| 2026-05-07 07:58 | 18.40774 | 119.44088 | 34856 ft | 503 kts | 45° |
| 2026-05-07 07:59 | 18.45459 | 119.49566 | 34856 ft | 503 kts | 46° |
| 2026-05-07 07:59 | 18.50142 | 119.55045 | 34858 ft | 503 kts | 46° |
| 2026-05-07 08:00 | 18.54826 | 119.60530 | 34858 ft | 504 kts | 46° |
| 2026-05-07 08:00 | 18.59515 | 119.66028 | 34864 ft | 504 kts | 46° |
| 2026-05-07 08:01 | 18.64196 | 119.71528 | 34860 ft | 504 kts | 46° |
| 2026-05-07 08:01 | 18.68852 | 119.76992 | 34862 ft | 504 kts | 46° |
| 2026-05-07 08:02 | 18.73537 | 119.82494 | 34862 ft | 504 kts | 46° |
| 2026-05-07 08:02 | 18.78221 | 119.88002 | 34865 ft | 505 kts | 46° |
| 2026-05-07 08:03 | 18.82915 | 119.93530 | 34867 ft | 505 kts | 46° |
| 2026-05-07 08:03 | 18.87604 | 119.99056 | 34862 ft | 505 kts | 46° |
| 2026-05-07 08:04 | 18.92289 | 120.04584 | 34862 ft | 505 kts | 46° |
| 2026-05-07 08:04 | 18.96976 | 120.10116 | 34862 ft | 505 kts | 46° |
| 2026-05-07 08:05 | 19.01665 | 120.15657 | 34865 ft | 506 kts | 46° |
| 2026-05-07 08:05 | 19.06362 | 120.21213 | 34865 ft | 507 kts | 46° |
| 2026-05-07 08:06 | 19.11052 | 120.26767 | 34864 ft | 506 kts | 46° |
| 2026-05-07 08:06 | 19.15743 | 120.32326 | 34867 ft | 506 kts | 46° |
| 2026-05-07 08:07 | 19.20432 | 120.37887 | 34868 ft | 507 kts | 46° |
| 2026-05-07 08:07 | 19.25125 | 120.43457 | 34865 ft | 507 kts | 46° |
| 2026-05-07 08:08 | 19.29825 | 120.49043 | 34867 ft | 508 kts | 46° |
| 2026-05-07 08:08 | 19.34522 | 120.54631 | 34865 ft | 508 kts | 46° |
| 2026-05-07 08:09 | 19.39216 | 120.60219 | 34867 ft | 508 kts | 46° |
| 2026-05-07 08:09 | 19.43907 | 120.65817 | 34867 ft | 508 kts | 46° |
| 2026-05-07 08:10 | 19.48601 | 120.71416 | 34870 ft | 508 kts | 46° |
| 2026-05-07 08:10 | 19.53266 | 120.76982 | 34870 ft | 508 kts | 46° |
| 2026-05-07 08:11 | 19.57988 | 120.82623 | 34873 ft | 508 kts | 46° |
| 2026-05-07 08:11 | 19.62637 | 120.88185 | 34871 ft | 508 kts | 46° |
| 2026-05-07 08:12 | 19.67326 | 120.93799 | 34876 ft | 508 kts | 46° |
| 2026-05-07 08:12 | 19.72009 | 120.99412 | 34876 ft | 509 kts | 46° |
| 2026-05-07 08:13 | 19.76704 | 121.05044 | 34879 ft | 509 kts | 46° |
| 2026-05-07 08:13 | 19.81398 | 121.10682 | 34879 ft | 510 kts | 46° |
| 2026-05-07 08:14 | 19.86092 | 121.16324 | 34883 ft | 510 kts | 46° |
| 2026-05-07 08:14 | 19.90780 | 121.21965 | 34876 ft | 509 kts | 46° |
| 2026-05-07 08:15 | 19.95473 | 121.27617 | 34879 ft | 510 kts | 46° |
| 2026-05-07 08:15 | 20.00173 | 121.33283 | 34882 ft | 511 kts | 46° |
| 2026-05-07 08:16 | 20.04866 | 121.38946 | 34885 ft | 511 kts | 46° |
| 2026-05-07 08:16 | 20.09562 | 121.44620 | 34884 ft | 511 kts | 46° |
| 2026-05-07 08:17 | 20.14261 | 121.50302 | 34887 ft | 511 kts | 46° |
| 2026-05-07 08:17 | 20.18921 | 121.55941 | 34890 ft | 511 kts | 46° |
| 2026-05-07 08:18 | 20.23619 | 121.61633 | 34891 ft | 512 kts | 46° |
| 2026-05-07 08:18 | 20.28310 | 121.67322 | 34894 ft | 512 kts | 46° |
| 2026-05-07 08:19 | 20.33006 | 121.73024 | 34896 ft | 511 kts | 46° |
| 2026-05-07 08:19 | 20.37695 | 121.78722 | 34880 ft | 511 kts | 46° |
| 2026-05-07 08:20 | 20.42386 | 121.84426 | 34894 ft | 512 kts | 46° |
| 2026-05-07 08:20 | 20.47074 | 121.90135 | 34895 ft | 512 kts | 46° |
| 2026-05-07 08:21 | 20.51768 | 121.95856 | 34890 ft | 512 kts | 46° |
| 2026-05-07 08:21 | 20.56453 | 122.01573 | 34886 ft | 512 kts | 46° |
| 2026-05-07 08:22 | 20.61136 | 122.07291 | 34906 ft | 512 kts | 46° |
| 2026-05-07 08:22 | 20.65821 | 122.13019 | 34904 ft | 512 kts | 46° |
| 2026-05-07 08:23 | 20.70507 | 122.18754 | 34888 ft | 512 kts | 46° |
| 2026-05-07 08:23 | 20.75157 | 122.24452 | 34896 ft | 512 kts | 46° |
| 2026-05-07 08:24 | 20.79831 | 122.30183 | 34898 ft | 512 kts | 46° |
| 2026-05-07 08:24 | 20.84505 | 122.35920 | 34911 ft | 512 kts | 46° |
| 2026-05-07 08:25 | 20.89175 | 122.41659 | 34895 ft | 512 kts | 46° |
| 2026-05-07 08:25 | 20.93844 | 122.47403 | 34910 ft | 512 kts | 46° |
| 2026-05-07 08:26 | 21.00294 | 122.54848 | 34901 ft | 507 kts | 37° |
| 2026-05-07 08:26 | 21.06004 | 122.59213 | 34900 ft | 504 kts | 31° |
| 2026-05-07 08:27 | 21.11876 | 122.63309 | 34903 ft | 504 kts | 30° |
| 2026-05-07 08:27 | 21.17743 | 122.67347 | 34910 ft | 504 kts | 30° |
| 2026-05-07 08:28 | 21.23624 | 122.71422 | 34907 ft | 503 kts | 30° |
| 2026-05-07 08:28 | 21.29501 | 122.75515 | 34910 ft | 503 kts | 30° |
| 2026-05-07 08:29 | 21.35364 | 122.79608 | 34906 ft | 503 kts | 30° |
| 2026-05-07 08:29 | 21.41235 | 122.83710 | 34913 ft | 503 kts | 30° |
| 2026-05-07 08:30 | 21.47097 | 122.87810 | 34907 ft | 502 kts | 30° |
| 2026-05-07 08:30 | 21.52948 | 122.91905 | 34909 ft | 502 kts | 30° |
| 2026-05-07 08:31 | 21.58801 | 122.96005 | 34909 ft | 502 kts | 30° |
| 2026-05-07 08:31 | 21.64659 | 123.00113 | 34908 ft | 502 kts | 30° |
| 2026-05-07 08:32 | 21.70512 | 123.04222 | 34912 ft | 502 kts | 30° |
| 2026-05-07 08:32 | 21.76362 | 123.08332 | 34912 ft | 502 kts | 30° |
| 2026-05-07 08:33 | 21.82217 | 123.12451 | 34914 ft | 502 kts | 30° |
| 2026-05-07 08:33 | 21.88071 | 123.16572 | 34911 ft | 502 kts | 30° |
| 2026-05-07 08:34 | 21.93916 | 123.20692 | 34915 ft | 502 kts | 30° |
| 2026-05-07 08:34 | 21.99755 | 123.24811 | 34913 ft | 502 kts | 30° |
| 2026-05-07 08:35 | 22.05594 | 123.28935 | 34916 ft | 502 kts | 31° |
| 2026-05-07 08:35 | 22.11398 | 123.33037 | 34913 ft | 502 kts | 31° |
| 2026-05-07 08:36 | 22.17229 | 123.37163 | 34914 ft | 501 kts | 31° |
| 2026-05-07 08:36 | 22.23057 | 123.41292 | 34914 ft | 501 kts | 31° |
| 2026-05-07 08:37 | 22.28883 | 123.45422 | 34917 ft | 501 kts | 31° |
| 2026-05-07 08:37 | 22.34714 | 123.49560 | 34920 ft | 501 kts | 31° |
| 2026-05-07 08:38 | 22.40532 | 123.53694 | 34920 ft | 501 kts | 31° |
| 2026-05-07 08:38 | 22.46354 | 123.57835 | 34921 ft | 501 kts | 31° |
| 2026-05-07 08:39 | 22.52170 | 123.61975 | 34919 ft | 501 kts | 31° |
| 2026-05-07 08:39 | 22.57987 | 123.66121 | 34919 ft | 500 kts | 31° |
| 2026-05-07 08:40 | 22.63800 | 123.70267 | 34921 ft | 500 kts | 31° |
| 2026-05-07 08:40 | 22.69601 | 123.74410 | 34920 ft | 500 kts | 31° |
| 2026-05-07 08:41 | 22.75403 | 123.78558 | 34929 ft | 499 kts | 31° |
| 2026-05-07 08:41 | 22.81200 | 123.82706 | 34921 ft | 499 kts | 31° |
| 2026-05-07 08:42 | 22.87001 | 123.86861 | 34921 ft | 499 kts | 31° |
| 2026-05-07 08:42 | 22.92790 | 123.91012 | 34921 ft | 499 kts | 31° |
| 2026-05-07 08:43 | 22.98584 | 123.95172 | 34924 ft | 499 kts | 31° |
| 2026-05-07 08:43 | 23.04355 | 123.99353 | 34927 ft | 499 kts | 31° |
| 2026-05-07 08:44 | 23.10100 | 124.03599 | 34930 ft | 499 kts | 32° |
| 2026-05-07 08:44 | 23.15840 | 124.07853 | 34929 ft | 499 kts | 32° |
| 2026-05-07 08:45 | 23.21542 | 124.12071 | 34926 ft | 499 kts | 31° |
| 2026-05-07 08:45 | 23.27281 | 124.16315 | 34923 ft | 499 kts | 31° |
| 2026-05-07 08:46 | 23.33009 | 124.20586 | 34921 ft | 500 kts | 34° |
| 2026-05-07 08:46 | 23.38080 | 124.25784 | 34927 ft | 503 kts | 44° |
| 2026-05-07 08:47 | 23.42748 | 124.31476 | 34932 ft | 504 kts | 46° |
| 2026-05-07 08:47 | 23.47346 | 124.37246 | 34932 ft | 504 kts | 46° |
| 2026-05-07 08:48 | 23.51941 | 124.43010 | 34931 ft | 504 kts | 46° |
| 2026-05-07 08:48 | 23.56549 | 124.48770 | 34926 ft | 503 kts | 46° |
| 2026-05-07 08:49 | 23.61154 | 124.54521 | 34927 ft | 503 kts | 46° |
| 2026-05-07 08:49 | 23.65759 | 124.60275 | 34932 ft | 503 kts | 46° |
| 2026-05-07 08:50 | 23.70361 | 124.66036 | 34932 ft | 503 kts | 46° |
| 2026-05-07 08:50 | 23.74958 | 124.71797 | 34939 ft | 503 kts | 46° |
| 2026-05-07 08:51 | 23.79526 | 124.77528 | 34944 ft | 504 kts | 46° |
| 2026-05-07 08:51 | 23.84124 | 124.83303 | 34931 ft | 504 kts | 46° |
| 2026-05-07 08:52 | 23.88721 | 124.89085 | 34934 ft | 504 kts | 46° |
| 2026-05-07 08:52 | 23.93310 | 124.94863 | 34936 ft | 504 kts | 46° |
| 2026-05-07 08:53 | 23.97905 | 125.00656 | 34936 ft | 504 kts | 46° |
| 2026-05-07 08:53 | 24.02506 | 125.06461 | 34933 ft | 506 kts | 46° |
| 2026-05-07 08:54 | 24.07114 | 125.12284 | 34945 ft | 506 kts | 46° |
| 2026-05-07 08:54 | 24.11721 | 125.18114 | 34938 ft | 505 kts | 46° |
| 2026-05-07 08:55 | 24.16316 | 125.23935 | 34943 ft | 505 kts | 46° |
| 2026-05-07 08:55 | 24.20911 | 125.29760 | 34940 ft | 506 kts | 46° |
| 2026-05-07 08:56 | 24.25514 | 125.35604 | 34952 ft | 507 kts | 46° |
| 2026-05-07 08:56 | 24.30116 | 125.41455 | 34947 ft | 507 kts | 46° |
| 2026-05-07 08:57 | 24.34682 | 125.47267 | 34947 ft | 506 kts | 46° |
| 2026-05-07 08:57 | 24.39277 | 125.53121 | 34947 ft | 507 kts | 46° |
| 2026-05-07 08:58 | 24.43888 | 125.59003 | 34950 ft | 509 kts | 46° |
| 2026-05-07 08:58 | 24.48506 | 125.64903 | 34955 ft | 509 kts | 46° |
| 2026-05-07 08:59 | 24.53113 | 125.70795 | 34949 ft | 509 kts | 46° |
| 2026-05-07 08:59 | 24.57722 | 125.76698 | 34950 ft | 509 kts | 46° |
| 2026-05-07 09:00 | 24.62347 | 125.82625 | 34955 ft | 510 kts | 46° |
| 2026-05-07 09:00 | 24.66973 | 125.88564 | 34966 ft | 511 kts | 46° |
| 2026-05-07 09:01 | 24.71594 | 125.94505 | 34952 ft | 511 kts | 46° |
| 2026-05-07 09:01 | 24.76216 | 126.00455 | 34952 ft | 511 kts | 46° |
| 2026-05-07 09:02 | 24.80804 | 126.06367 | 34957 ft | 511 kts | 46° |
| 2026-05-07 09:02 | 24.85418 | 126.12319 | 34966 ft | 511 kts | 46° |
| 2026-05-07 09:03 | 24.90025 | 126.18271 | 34960 ft | 510 kts | 46° |
| 2026-05-07 09:03 | 24.94628 | 126.24226 | 34960 ft | 510 kts | 46° |
| 2026-05-07 09:04 | 24.99237 | 126.30193 | 34958 ft | 512 kts | 46° |
| 2026-05-07 09:04 | 25.03862 | 126.36189 | 34978 ft | 513 kts | 46° |
| 2026-05-07 09:05 | 25.08481 | 126.42187 | 34959 ft | 513 kts | 46° |
| 2026-05-07 09:05 | 25.13099 | 126.48191 | 34959 ft | 513 kts | 46° |
| 2026-05-07 09:06 | 25.17720 | 126.54205 | 34963 ft | 514 kts | 46° |
| 2026-05-07 09:06 | 25.22345 | 126.60233 | 34978 ft | 515 kts | 46° |
| 2026-05-07 09:07 | 25.26968 | 126.66267 | 34967 ft | 515 kts | 46° |
| 2026-05-07 09:07 | 25.31562 | 126.72270 | 34965 ft | 515 kts | 46° |
| 2026-05-07 09:08 | 25.36186 | 126.78319 | 34965 ft | 516 kts | 46° |
| 2026-05-07 09:08 | 25.40820 | 126.84390 | 34978 ft | 517 kts | 46° |
| 2026-05-07 09:09 | 25.45454 | 126.90469 | 34965 ft | 517 kts | 46° |
| 2026-05-07 09:09 | 25.50084 | 126.96552 | 34965 ft | 517 kts | 46° |
| 2026-05-07 09:10 | 25.54713 | 127.02638 | 34967 ft | 518 kts | 46° |
| 2026-05-07 09:10 | 25.59349 | 127.08744 | 34976 ft | 518 kts | 46° |
| 2026-05-07 09:11 | 25.64052 | 127.14792 | 34972 ft | 517 kts | 45° |
| 2026-05-07 09:11 | 25.68856 | 127.20723 | 34971 ft | 517 kts | 44° |
| 2026-05-07 09:12 | 25.73655 | 127.26662 | 34975 ft | 518 kts | 45° |
| 2026-05-07 09:12 | 25.78440 | 127.32634 | 34974 ft | 518 kts | 45° |
| 2026-05-07 09:13 | 25.83219 | 127.38629 | 34972 ft | 518 kts | 45° |
| 2026-05-07 09:13 | 25.87998 | 127.44632 | 34971 ft | 518 kts | 45° |
| 2026-05-07 09:14 | 25.92772 | 127.50636 | 34972 ft | 519 kts | 45° |
| 2026-05-07 09:14 | 25.97517 | 127.56610 | 34975 ft | 519 kts | 45° |
| 2026-05-07 09:15 | 26.02291 | 127.62629 | 34949 ft | 519 kts | 45° |
| 2026-05-07 09:15 | 26.07060 | 127.68648 | 34944 ft | 519 kts | 45° |
| 2026-05-07 09:16 | 26.11821 | 127.74667 | 34954 ft | 519 kts | 45° |
| 2026-05-07 09:16 | 26.15894 | 127.79662 | 34958 ft | 517 kts | 39° |
| 2026-05-07 09:17 | 26.21274 | 127.84936 | 34966 ft | 515 kts | 36° |
| 2026-05-07 09:17 | 26.26723 | 127.90033 | 34974 ft | 515 kts | 36° |
| 2026-05-07 09:18 | 26.32222 | 127.95141 | 34968 ft | 515 kts | 36° |
| 2026-05-07 09:18 | 26.37724 | 128.00272 | 34969 ft | 516 kts | 36° |
| 2026-05-07 09:19 | 26.43222 | 128.05418 | 34972 ft | 516 kts | 36° |
| 2026-05-07 09:19 | 26.48727 | 128.10582 | 34977 ft | 516 kts | 36° |
| 2026-05-07 09:20 | 26.54223 | 128.15744 | 34980 ft | 518 kts | 36° |
| 2026-05-07 09:20 | 26.59745 | 128.20936 | 34983 ft | 518 kts | 36° |
| 2026-05-07 09:21 | 26.65260 | 128.26128 | 34979 ft | 518 kts | 36° |
| 2026-05-07 09:21 | 26.70782 | 128.31333 | 34983 ft | 519 kts | 36° |
| 2026-05-07 09:22 | 26.76310 | 128.36551 | 34978 ft | 520 kts | 36° |
| 2026-05-07 09:22 | 26.81844 | 128.41783 | 34972 ft | 520 kts | 36° |
| 2026-05-07 09:23 | 26.87372 | 128.47015 | 34992 ft | 521 kts | 36° |
| 2026-05-07 09:23 | 26.92875 | 128.52230 | 34980 ft | 522 kts | 36° |
| 2026-05-07 09:24 | 26.98418 | 128.57490 | 34980 ft | 522 kts | 36° |
| 2026-05-07 09:24 | 27.03964 | 128.62761 | 34987 ft | 522 kts | 36° |
| 2026-05-07 09:25 | 27.09516 | 128.68043 | 34978 ft | 523 kts | 36° |
| 2026-05-07 09:25 | 27.15066 | 128.73332 | 34979 ft | 523 kts | 36° |
| 2026-05-07 09:26 | 27.20610 | 128.78621 | 34980 ft | 523 kts | 36° |
| 2026-05-07 09:26 | 27.26172 | 128.83935 | 34978 ft | 526 kts | 36° |
| 2026-05-07 09:27 | 27.31755 | 128.89275 | 34968 ft | 528 kts | 36° |
| 2026-05-07 09:28 | 27.40124 | 128.97297 | 34982 ft | 527 kts | 36° |
| 2026-05-07 09:28 | 27.45707 | 129.02656 | 34972 ft | 528 kts | 36° |
| 2026-05-07 09:29 | 27.51295 | 129.08037 | 34978 ft | 529 kts | 37° |
| 2026-05-07 09:29 | 27.56344 | 129.14136 | 34974 ft | 534 kts | 45° |
| 2026-05-07 09:30 | 27.61086 | 129.20516 | 34980 ft | 535 kts | 46° |
| 2026-05-07 09:30 | 27.65814 | 129.26994 | 34980 ft | 535 kts | 47° |
| 2026-05-07 09:31 | 27.70543 | 129.33471 | 34982 ft | 535 kts | 46° |
| 2026-05-07 09:31 | 27.75277 | 129.39941 | 34982 ft | 535 kts | 47° |
| 2026-05-07 09:32 | 27.80023 | 129.46429 | 34978 ft | 536 kts | 47° |
| 2026-05-07 09:32 | 27.84769 | 129.52927 | 34978 ft | 536 kts | 47° |
| 2026-05-07 09:33 | 27.89511 | 129.59430 | 34986 ft | 536 kts | 47° |
| 2026-05-07 09:33 | 27.94246 | 129.65933 | 34980 ft | 535 kts | 47° |
| 2026-05-07 09:34 | 27.98977 | 129.72443 | 34978 ft | 535 kts | 47° |
| 2026-05-07 09:34 | 28.03704 | 129.78954 | 34980 ft | 535 kts | 47° |
| 2026-05-07 09:35 | 28.08427 | 129.85470 | 34979 ft | 535 kts | 47° |
| 2026-05-07 09:35 | 28.13140 | 129.91984 | 34971 ft | 535 kts | 47° |
| 2026-05-07 09:36 | 28.17820 | 129.98461 | 34969 ft | 535 kts | 47° |
| 2026-05-07 09:36 | 28.22526 | 130.04984 | 34969 ft | 534 kts | 47° |
| 2026-05-07 09:37 | 28.27228 | 130.11513 | 34970 ft | 534 kts | 47° |
| 2026-05-07 09:37 | 28.31921 | 130.18038 | 34973 ft | 534 kts | 47° |
| 2026-05-07 09:38 | 28.36617 | 130.24577 | 34981 ft | 534 kts | 47° |
| 2026-05-07 09:38 | 28.41306 | 130.31118 | 34975 ft | 533 kts | 47° |
| 2026-05-07 09:39 | 28.45985 | 130.37654 | 34983 ft | 533 kts | 47° |
| 2026-05-07 09:39 | 28.50665 | 130.44201 | 34988 ft | 533 kts | 47° |
| 2026-05-07 09:40 | 28.55343 | 130.50758 | 34968 ft | 534 kts | 47° |
| 2026-05-07 09:40 | 28.60019 | 130.57319 | 34975 ft | 534 kts | 47° |
| 2026-05-07 09:41 | 28.64696 | 130.63894 | 34976 ft | 534 kts | 47° |
| 2026-05-07 09:41 | 28.69375 | 130.70480 | 34977 ft | 535 kts | 47° |
| 2026-05-07 09:42 | 28.74062 | 130.77089 | 34972 ft | 536 kts | 47° |
| 2026-05-07 09:42 | 28.78745 | 130.83704 | 34976 ft | 536 kts | 47° |
| 2026-05-07 09:43 | 28.83421 | 130.90318 | 34969 ft | 536 kts | 48° |
| 2026-05-07 09:43 | 28.88067 | 130.96902 | 34963 ft | 535 kts | 47° |
| 2026-05-07 09:44 | 28.92760 | 131.03562 | 34959 ft | 535 kts | 48° |
| 2026-05-07 09:44 | 28.97422 | 131.10187 | 34970 ft | 535 kts | 48° |
| 2026-05-07 09:45 | 29.02082 | 131.16821 | 34964 ft | 534 kts | 47° |
| 2026-05-07 09:45 | 29.06717 | 131.23431 | 34965 ft | 532 kts | 47° |
| 2026-05-07 09:46 | 29.11312 | 131.29994 | 34969 ft | 532 kts | 48° |
| 2026-05-07 09:46 | 29.15938 | 131.36611 | 34967 ft | 532 kts | 47° |
| 2026-05-07 09:47 | 29.20547 | 131.43214 | 34963 ft | 531 kts | 48° |
| 2026-05-07 09:47 | 29.25151 | 131.49822 | 34967 ft | 531 kts | 47° |
| 2026-05-07 09:48 | 29.29758 | 131.56443 | 34960 ft | 531 kts | 47° |
| 2026-05-07 09:48 | 29.34363 | 131.63073 | 34965 ft | 531 kts | 47° |
| 2026-05-07 09:49 | 29.38966 | 131.69711 | 34966 ft | 532 kts | 47° |
| 2026-05-07 09:49 | 29.43569 | 131.76358 | 34962 ft | 533 kts | 47° |
| 2026-05-07 09:50 | 29.48149 | 131.82983 | 34958 ft | 533 kts | 47° |
| 2026-05-07 09:50 | 29.52786 | 131.89703 | 34966 ft | 533 kts | 48° |
| 2026-05-07 09:51 | 29.57362 | 131.96346 | 34963 ft | 533 kts | 48° |
| 2026-05-07 09:51 | 29.61962 | 132.03034 | 34961 ft | 534 kts | 48° |
| 2026-05-07 09:52 | 29.66553 | 132.09716 | 35375 ft | 529 kts | 47° |
| 2026-05-07 09:52 | 29.68856 | 132.12997 | 35658 ft | 526 kts | 47° |
| 2026-05-07 09:52 | 29.71180 | 132.16245 | 35828 ft | 525 kts | 46° |
| 2026-05-07 09:52 | 29.73508 | 132.19476 | 35998 ft | 525 kts | 46° |
| 2026-05-07 09:53 | 29.75842 | 132.22719 | 36117 ft | 526 kts | 46° |
| 2026-05-07 09:53 | 29.78174 | 132.25969 | 36238 ft | 526 kts | 46° |
| 2026-05-07 09:53 | 29.80498 | 132.29222 | 36449 ft | 525 kts | 47° |
| 2026-05-07 09:53 | 29.82812 | 132.32473 | 36618 ft | 525 kts | 47° |
| 2026-05-07 09:54 | 29.85121 | 132.35723 | 36746 ft | 525 kts | 47° |
| 2026-05-07 09:54 | 29.87431 | 132.38980 | 36870 ft | 525 kts | 47° |
| 2026-05-07 09:54 | 29.89740 | 132.42237 | 36944 ft | 526 kts | 47° |
| 2026-05-07 09:55 | 29.94395 | 132.48809 | 36957 ft | 531 kts | 47° |
| 2026-05-07 09:55 | 29.99060 | 132.55409 | 36955 ft | 531 kts | 47° |
| 2026-05-07 09:56 | 30.03718 | 132.62012 | 36949 ft | 530 kts | 47° |
| 2026-05-07 09:56 | 30.08373 | 132.68619 | 36953 ft | 530 kts | 47° |
| 2026-05-07 09:57 | 30.12988 | 132.75179 | 36952 ft | 530 kts | 47° |
| 2026-05-07 09:57 | 30.17634 | 132.81795 | 36952 ft | 530 kts | 47° |
| 2026-05-07 09:58 | 30.22274 | 132.88412 | 36950 ft | 530 kts | 47° |
| 2026-05-07 09:58 | 30.26911 | 132.95037 | 36953 ft | 530 kts | 47° |
| 2026-05-07 09:59 | 30.31543 | 133.01665 | 36952 ft | 530 kts | 47° |
| 2026-05-07 09:59 | 30.36173 | 133.08302 | 36949 ft | 529 kts | 47° |
| 2026-05-07 10:00 | 30.40783 | 133.14923 | 36954 ft | 528 kts | 47° |
| 2026-05-07 10:00 | 30.45392 | 133.21551 | 36952 ft | 528 kts | 47° |
| 2026-05-07 10:01 | 30.50000 | 133.28189 | 36950 ft | 528 kts | 48° |
| 2026-05-07 10:01 | 30.54597 | 133.34823 | 36947 ft | 527 kts | 48° |
| 2026-05-07 10:02 | 30.59188 | 133.41459 | 36954 ft | 527 kts | 48° |
| 2026-05-07 10:02 | 30.63774 | 133.48098 | 36946 ft | 527 kts | 48° |
| 2026-05-07 10:03 | 30.68360 | 133.54750 | 36949 ft | 527 kts | 48° |
| 2026-05-07 10:03 | 30.72936 | 133.61398 | 36951 ft | 527 kts | 48° |
| 2026-05-07 10:04 | 30.77505 | 133.68047 | 36956 ft | 526 kts | 48° |
| 2026-05-07 10:04 | 30.82044 | 133.74664 | 36952 ft | 526 kts | 48° |
| 2026-05-07 10:05 | 30.86602 | 133.81314 | 36951 ft | 526 kts | 49° |
| 2026-05-07 10:05 | 30.91164 | 133.87981 | 36944 ft | 526 kts | 49° |
| 2026-05-07 10:06 | 30.95713 | 133.94642 | 36956 ft | 525 kts | 49° |
| 2026-05-07 10:06 | 31.00259 | 134.01310 | 36949 ft | 525 kts | 49° |
| 2026-05-07 10:07 | 31.04036 | 134.06858 | 36943 ft | 525 kts | 49° |
| 2026-05-07 10:07 | 31.08574 | 134.13535 | 36974 ft | 525 kts | 49° |
| 2026-05-07 10:08 | 31.13103 | 134.20210 | 36958 ft | 525 kts | 49° |
| 2026-05-07 10:08 | 31.17636 | 134.26902 | 36955 ft | 525 kts | 49° |
| 2026-05-07 10:09 | 31.22161 | 134.33594 | 36964 ft | 525 kts | 49° |
| 2026-05-07 10:09 | 31.26686 | 134.40297 | 36956 ft | 526 kts | 49° |
| 2026-05-07 10:10 | 31.31212 | 134.47015 | 36950 ft | 526 kts | 49° |
| 2026-05-07 10:10 | 31.35735 | 134.53739 | 36958 ft | 526 kts | 50° |
| 2026-05-07 10:11 | 31.40258 | 134.60475 | 36957 ft | 526 kts | 50° |
| 2026-05-07 10:11 | 31.44775 | 134.67214 | 36959 ft | 526 kts | 50° |
| 2026-05-07 10:12 | 31.49264 | 134.73922 | 36963 ft | 526 kts | 50° |
| 2026-05-07 10:12 | 31.53774 | 134.80672 | 36960 ft | 526 kts | 50° |
| 2026-05-07 10:13 | 31.58286 | 134.87440 | 36962 ft | 526 kts | 50° |
| 2026-05-07 10:13 | 31.62792 | 134.94209 | 36958 ft | 527 kts | 50° |
| 2026-05-07 10:14 | 31.67298 | 135.00990 | 36959 ft | 527 kts | 50° |
| 2026-05-07 10:14 | 31.71793 | 135.07768 | 36964 ft | 525 kts | 50° |
| 2026-05-07 10:15 | 31.76517 | 135.14286 | 36959 ft | 523 kts | 45° |
| 2026-05-07 10:15 | 31.81473 | 135.20529 | 36960 ft | 523 kts | 44° |
| 2026-05-07 10:16 | 31.86413 | 135.26816 | 36962 ft | 523 kts | 45° |
| 2026-05-07 10:16 | 31.91302 | 135.33164 | 36961 ft | 523 kts | 45° |
| 2026-05-07 10:17 | 31.96162 | 135.39531 | 36965 ft | 523 kts | 46° |
| 2026-05-07 10:17 | 32.01009 | 135.45897 | 36963 ft | 521 kts | 46° |
| 2026-05-07 10:18 | 32.05812 | 135.52210 | 36961 ft | 521 kts | 46° |
| 2026-05-07 10:18 | 32.10654 | 135.58582 | 36965 ft | 521 kts | 46° |
| 2026-05-07 10:19 | 32.15483 | 135.64947 | 36965 ft | 520 kts | 46° |
| 2026-05-07 10:19 | 32.20302 | 135.71310 | 36960 ft | 520 kts | 46° |
| 2026-05-07 10:20 | 32.25129 | 135.77696 | 36970 ft | 520 kts | 46° |
| 2026-05-07 10:20 | 32.29946 | 135.84079 | 36962 ft | 520 kts | 46° |
| 2026-05-07 10:21 | 32.34744 | 135.90447 | 36967 ft | 519 kts | 46° |
| 2026-05-07 10:21 | 32.39553 | 135.96841 | 36966 ft | 519 kts | 46° |
| 2026-05-07 10:22 | 32.44055 | 136.03526 | 36962 ft | 521 kts | 54° |
| 2026-05-07 10:22 | 32.48045 | 136.10701 | 36962 ft | 521 kts | 56° |
| 2026-05-07 10:23 | 32.51920 | 136.17893 | 36969 ft | 522 kts | 56° |
| 2026-05-07 10:23 | 32.55809 | 136.25144 | 36960 ft | 521 kts | 56° |
| 2026-05-07 10:24 | 32.59703 | 136.32392 | 36965 ft | 521 kts | 56° |
| 2026-05-07 10:24 | 32.63596 | 136.39638 | 36966 ft | 520 kts | 56° |
| 2026-05-07 10:25 | 32.67472 | 136.46866 | 36964 ft | 518 kts | 56° |
| 2026-05-07 10:25 | 32.71336 | 136.54083 | 36965 ft | 518 kts | 56° |
| 2026-05-07 10:26 | 32.75191 | 136.61299 | 36971 ft | 517 kts | 56° |
| 2026-05-07 10:26 | 32.79033 | 136.68505 | 36967 ft | 516 kts | 56° |
| 2026-05-07 10:27 | 32.82870 | 136.75715 | 36963 ft | 516 kts | 56° |
| 2026-05-07 10:27 | 32.86698 | 136.82923 | 36953 ft | 514 kts | 56° |
| 2026-05-07 10:28 | 32.90512 | 136.90116 | 36971 ft | 514 kts | 56° |
| 2026-05-07 10:28 | 32.94295 | 136.97267 | 36967 ft | 513 kts | 56° |
| 2026-05-07 10:29 | 32.98099 | 137.04468 | 36963 ft | 514 kts | 56° |
| 2026-05-07 10:29 | 33.01906 | 137.11692 | 36971 ft | 515 kts | 57° |
| 2026-05-07 10:30 | 33.07610 | 137.22543 | 36968 ft | 515 kts | 57° |
| 2026-05-07 10:30 | 33.11408 | 137.29786 | 36970 ft | 515 kts | 57° |
| 2026-05-07 10:31 | 33.15204 | 137.37037 | 36968 ft | 515 kts | 57° |
| 2026-05-07 10:31 | 33.18996 | 137.44297 | 36968 ft | 516 kts | 57° |
| 2026-05-07 10:32 | 33.22800 | 137.51589 | 36968 ft | 517 kts | 57° |
| 2026-05-07 10:32 | 33.26598 | 137.58879 | 36968 ft | 517 kts | 57° |
| 2026-05-07 10:33 | 33.30398 | 137.66185 | 36968 ft | 518 kts | 57° |
| 2026-05-07 10:33 | 33.34200 | 137.73516 | 36968 ft | 519 kts | 58° |
| 2026-05-07 10:34 | 33.38004 | 137.80864 | 36965 ft | 519 kts | 58° |
| 2026-05-07 10:34 | 33.41782 | 137.88176 | 36966 ft | 521 kts | 58° |
| 2026-05-07 10:35 | 33.45592 | 137.95570 | 36968 ft | 521 kts | 58° |
| 2026-05-07 10:35 | 33.49396 | 138.02961 | 36973 ft | 521 kts | 58° |
| 2026-05-07 10:36 | 33.53201 | 138.10367 | 36969 ft | 522 kts | 58° |
| 2026-05-07 10:36 | 33.57004 | 138.17793 | 36969 ft | 522 kts | 58° |
| 2026-05-07 10:37 | 33.60804 | 138.25212 | 36969 ft | 523 kts | 59° |
| 2026-05-07 10:37 | 33.64608 | 138.32658 | 36968 ft | 524 kts | 59° |
| 2026-05-07 10:38 | 33.68412 | 138.40123 | 36964 ft | 524 kts | 59° |
| 2026-05-07 10:38 | 33.72213 | 138.47597 | 36965 ft | 524 kts | 59° |
| 2026-05-07 10:39 | 33.76012 | 138.55086 | 36965 ft | 525 kts | 59° |
| 2026-05-07 10:39 | 33.79808 | 138.62580 | 36964 ft | 525 kts | 59° |
| 2026-05-07 10:40 | 33.83601 | 138.70082 | 36965 ft | 525 kts | 59° |
| 2026-05-07 10:40 | 33.87394 | 138.77601 | 36965 ft | 526 kts | 59° |
| 2026-05-07 10:41 | 33.91159 | 138.85080 | 36965 ft | 526 kts | 59° |
| 2026-05-07 10:41 | 33.94944 | 138.92614 | 36965 ft | 527 kts | 60° |
| 2026-05-07 10:42 | 33.98735 | 139.00176 | 36962 ft | 527 kts | 60° |
| 2026-05-07 10:42 | 34.02522 | 139.07749 | 36964 ft | 528 kts | 60° |
| 2026-05-07 10:43 | 34.06311 | 139.15338 | 36958 ft | 529 kts | 60° |
| 2026-05-07 10:43 | 34.10112 | 139.22968 | 36962 ft | 530 kts | 60° |
| 2026-05-07 10:44 | 34.13895 | 139.30588 | 36957 ft | 530 kts | 60° |
| 2026-05-07 10:44 | 34.17679 | 139.38218 | 36959 ft | 530 kts | 60° |
| 2026-05-07 10:45 | 34.21462 | 139.45852 | 36958 ft | 530 kts | 60° |
| 2026-05-07 10:45 | 34.25242 | 139.53498 | 36958 ft | 530 kts | 60° |
| 2026-05-07 10:46 | 34.29018 | 139.61156 | 36955 ft | 531 kts | 60° |
| 2026-05-07 10:46 | 34.32794 | 139.68835 | 36952 ft | 531 kts | 60° |
| 2026-05-07 10:47 | 34.36567 | 139.76520 | 36952 ft | 531 kts | 61° |
| 2026-05-07 10:47 | 34.40339 | 139.84222 | 36950 ft | 532 kts | 61° |
| 2026-05-07 10:48 | 34.44111 | 139.91941 | 36943 ft | 532 kts | 61° |
| 2026-05-07 10:48 | 34.47874 | 139.99659 | 36940 ft | 532 kts | 61° |
| 2026-05-07 10:49 | 34.51615 | 140.07347 | 36941 ft | 533 kts | 61° |
| 2026-05-07 10:49 | 34.55403 | 140.15150 | 36941 ft | 533 kts | 61° |
| 2026-05-07 10:50 | 34.59137 | 140.22857 | 36941 ft | 534 kts | 61° |
| 2026-05-07 10:50 | 34.62901 | 140.30644 | 36943 ft | 534 kts | 61° |
| 2026-05-07 10:51 | 34.66654 | 140.38426 | 36944 ft | 534 kts | 61° |
| 2026-05-07 10:51 | 34.70396 | 140.46208 | 36942 ft | 534 kts | 62° |
| 2026-05-07 10:52 | 34.74053 | 140.54077 | 36943 ft | 534 kts | 63° |
| 2026-05-07 10:52 | 34.77653 | 140.61976 | 36943 ft | 534 kts | 63° |
| 2026-05-07 10:53 | 34.81262 | 140.69884 | 36946 ft | 535 kts | 63° |
| 2026-05-07 10:53 | 34.84880 | 140.77796 | 36940 ft | 535 kts | 63° |
| 2026-05-07 10:54 | 34.88496 | 140.85709 | 36939 ft | 535 kts | 63° |
| 2026-05-07 10:54 | 34.92113 | 140.93646 | 36940 ft | 536 kts | 63° |
| 2026-05-07 10:55 | 34.95700 | 141.01533 | 36943 ft | 536 kts | 63° |
| 2026-05-07 10:55 | 34.99303 | 141.09477 | 36943 ft | 536 kts | 63° |
| 2026-05-07 10:56 | 35.02910 | 141.17448 | 36943 ft | 537 kts | 63° |
| 2026-05-07 10:56 | 35.06518 | 141.25438 | 36943 ft | 537 kts | 63° |
| 2026-05-07 10:57 | 35.09512 | 141.32083 | 36951 ft | 537 kts | 63° |
| 2026-05-07 10:57 | 35.13111 | 141.40089 | 36945 ft | 539 kts | 63° |
| 2026-05-07 10:58 | 35.16716 | 141.48126 | 36945 ft | 539 kts | 63° |
| 2026-05-07 10:58 | 35.20312 | 141.56163 | 36947 ft | 539 kts | 63° |
| 2026-05-07 10:59 | 35.23905 | 141.64212 | 36946 ft | 539 kts | 63° |
| 2026-05-07 10:59 | 35.27492 | 141.72266 | 36949 ft | 539 kts | 63° |
| 2026-05-07 11:00 | 35.31075 | 141.80327 | 36948 ft | 539 kts | 63° |
| 2026-05-07 11:00 | 35.34654 | 141.88401 | 36946 ft | 540 kts | 63° |
| 2026-05-07 11:01 | 35.38233 | 141.96497 | 36945 ft | 540 kts | 63° |
| 2026-05-07 11:01 | 35.41804 | 142.04593 | 36944 ft | 540 kts | 63° |
| 2026-05-07 11:02 | 35.45374 | 142.12705 | 36948 ft | 541 kts | 63° |
| 2026-05-07 11:02 | 35.48943 | 142.20834 | 36946 ft | 541 kts | 63° |
| 2026-05-07 11:03 | 35.52507 | 142.28973 | 36938 ft | 541 kts | 63° |
| 2026-05-07 11:03 | 35.56068 | 142.37122 | 36945 ft | 541 kts | 63° |
| 2026-05-07 11:04 | 35.59619 | 142.45270 | 36951 ft | 541 kts | 63° |
| 2026-05-07 11:04 | 35.63168 | 142.53434 | 36945 ft | 541 kts | 63° |
| 2026-05-07 11:05 | 35.66710 | 142.61602 | 36948 ft | 542 kts | 63° |
| 2026-05-07 11:05 | 35.70226 | 142.69728 | 36946 ft | 542 kts | 63° |
| 2026-05-07 11:06 | 35.73765 | 142.77928 | 36949 ft | 542 kts | 63° |
| 2026-05-07 11:06 | 35.77297 | 142.86133 | 36950 ft | 543 kts | 63° |
| 2026-05-07 11:07 | 35.80834 | 142.94368 | 36947 ft | 544 kts | 63° |
| 2026-05-07 11:07 | 35.84363 | 143.02604 | 36949 ft | 544 kts | 63° |
| 2026-05-07 11:08 | 35.87892 | 143.10863 | 36949 ft | 545 kts | 63° |
| 2026-05-07 11:08 | 35.91515 | 143.19075 | 36954 ft | 545 kts | 57° |
| 2026-05-07 11:09 | 35.93809 | 143.22795 | 36951 ft | 545 kts | 46° |
| 2026-05-07 11:09 | 35.96564 | 143.25990 | 36956 ft | 543 kts | 37° |
| 2026-05-07 11:09 | 36.02532 | 143.31710 | 36970 ft | 544 kts | 34° |
| 2026-05-07 11:10 | 36.08629 | 143.37243 | 36951 ft | 543 kts | 34° |
| 2026-05-07 11:10 | 36.14684 | 143.42742 | 36949 ft | 543 kts | 34° |
| 2026-05-07 11:11 | 36.20749 | 143.48309 | 36952 ft | 543 kts | 34° |
| 2026-05-07 11:11 | 36.26815 | 143.53910 | 36950 ft | 544 kts | 34° |
| 2026-05-07 11:12 | 36.32874 | 143.59520 | 36965 ft | 544 kts | 34° |
| 2026-05-07 11:12 | 36.38941 | 143.65150 | 36958 ft | 544 kts | 34° |
| 2026-05-07 11:13 | 36.44998 | 143.70778 | 36956 ft | 544 kts | 34° |
| 2026-05-07 11:13 | 36.51059 | 143.76420 | 36954 ft | 544 kts | 34° |
| 2026-05-07 11:14 | 36.57123 | 143.82078 | 36955 ft | 544 kts | 34° |
| 2026-05-07 11:14 | 36.63182 | 143.87742 | 36961 ft | 545 kts | 34° |
| 2026-05-07 11:15 | 36.69239 | 143.93416 | 36955 ft | 545 kts | 34° |
| 2026-05-07 11:15 | 36.75299 | 143.99102 | 36955 ft | 545 kts | 34° |
| 2026-05-07 11:16 | 36.81353 | 144.04795 | 36961 ft | 545 kts | 34° |
| 2026-05-07 11:16 | 36.87408 | 144.10501 | 36958 ft | 545 kts | 34° |
| 2026-05-07 11:17 | 36.93454 | 144.16213 | 36961 ft | 545 kts | 33° |
| 2026-05-07 11:17 | 36.99511 | 144.21945 | 36958 ft | 546 kts | 33° |
| 2026-05-07 11:18 | 37.05570 | 144.27690 | 36961 ft | 546 kts | 33° |
| 2026-05-07 11:18 | 37.11582 | 144.33413 | 36958 ft | 546 kts | 33° |
| 2026-05-07 11:19 | 37.17632 | 144.39186 | 36961 ft | 546 kts | 33° |
| 2026-05-07 11:19 | 37.23677 | 144.44966 | 36965 ft | 547 kts | 33° |
| 2026-05-07 11:20 | 37.29728 | 144.50764 | 36956 ft | 548 kts | 33° |
| 2026-05-07 11:20 | 37.35782 | 144.56576 | 36961 ft | 547 kts | 33° |
| 2026-05-07 11:21 | 37.41830 | 144.62394 | 36961 ft | 547 kts | 33° |
| 2026-05-07 11:21 | 37.47876 | 144.68223 | 36962 ft | 547 kts | 33° |
| 2026-05-07 11:22 | 37.53918 | 144.74060 | 36960 ft | 547 kts | 33° |
| 2026-05-07 11:22 | 37.59948 | 144.79898 | 36958 ft | 547 kts | 33° |
| 2026-05-07 11:23 | 37.65987 | 144.85756 | 36964 ft | 547 kts | 33° |
| 2026-05-07 11:23 | 37.72008 | 144.91610 | 36960 ft | 547 kts | 33° |
| 2026-05-07 11:24 | 37.78039 | 144.97486 | 36963 ft | 547 kts | 33° |
| 2026-05-07 11:24 | 37.84052 | 145.03355 | 36959 ft | 546 kts | 34° |
| 2026-05-07 11:25 | 37.90062 | 145.09236 | 36955 ft | 545 kts | 34° |
| 2026-05-07 11:25 | 37.96054 | 145.15112 | 36971 ft | 545 kts | 34° |
| 2026-05-07 11:26 | 38.02004 | 145.20957 | 36955 ft | 545 kts | 34° |
| 2026-05-07 11:26 | 38.08035 | 145.26894 | 36977 ft | 545 kts | 34° |
| 2026-05-07 11:27 | 38.13976 | 145.32756 | 36963 ft | 544 kts | 34° |
| 2026-05-07 11:27 | 38.19951 | 145.38665 | 36963 ft | 544 kts | 34° |
| 2026-05-07 11:28 | 38.25921 | 145.44581 | 36963 ft | 544 kts | 34° |
| 2026-05-07 11:28 | 38.31892 | 145.50511 | 36963 ft | 544 kts | 34° |
| 2026-05-07 11:29 | 38.37730 | 145.56678 | 36975 ft | 546 kts | 39° |
| 2026-05-07 11:29 | 38.43233 | 145.63338 | 36966 ft | 545 kts | 41° |
| 2026-05-07 11:30 | 38.48713 | 145.70020 | 36970 ft | 545 kts | 40° |
| 2026-05-07 11:30 | 38.54249 | 145.76643 | 36969 ft | 545 kts | 40° |
| 2026-05-07 11:31 | 38.59802 | 145.83229 | 36969 ft | 544 kts | 40° |
| 2026-05-07 11:31 | 38.65353 | 145.89816 | 36969 ft | 544 kts | 40° |
| 2026-05-07 11:32 | 38.73666 | 145.99717 | 36971 ft | 544 kts | 40° |
| 2026-05-07 11:33 | 38.79202 | 146.06333 | 36970 ft | 544 kts | 39° |
| 2026-05-07 11:33 | 38.84737 | 146.12961 | 36971 ft | 544 kts | 40° |
| 2026-05-07 11:34 | 38.90236 | 146.19562 | 36968 ft | 544 kts | 40° |
| 2026-05-07 11:34 | 38.95759 | 146.26207 | 36974 ft | 545 kts | 40° |
| 2026-05-07 11:35 | 39.01283 | 146.32868 | 36994 ft | 545 kts | 39° |
| 2026-05-07 11:35 | 39.06809 | 146.39547 | 36975 ft | 545 kts | 39° |
| 2026-05-07 11:36 | 39.12341 | 146.46246 | 36973 ft | 546 kts | 39° |
| 2026-05-07 11:36 | 39.17869 | 146.52956 | 36977 ft | 546 kts | 39° |
| 2026-05-07 11:37 | 39.23394 | 146.59679 | 36975 ft | 546 kts | 40° |
| 2026-05-07 11:37 | 39.28913 | 146.66408 | 36978 ft | 546 kts | 40° |
| 2026-05-07 11:38 | 39.34429 | 146.73152 | 36975 ft | 546 kts | 39° |
| 2026-05-07 11:38 | 39.39959 | 146.79925 | 36974 ft | 548 kts | 39° |
| 2026-05-07 11:39 | 39.45488 | 146.86714 | 36984 ft | 548 kts | 39° |
| 2026-05-07 11:39 | 39.51021 | 146.93523 | 36975 ft | 549 kts | 39° |
| 2026-05-07 11:40 | 39.56554 | 147.00348 | 36979 ft | 549 kts | 39° |
| 2026-05-07 11:40 | 39.62081 | 147.07181 | 36988 ft | 549 kts | 39° |
| 2026-05-07 11:41 | 39.67605 | 147.14029 | 36988 ft | 550 kts | 39° |
| 2026-05-07 11:41 | 39.73145 | 147.20908 | 36984 ft | 552 kts | 39° |
| 2026-05-07 11:42 | 39.78688 | 147.27809 | 36987 ft | 552 kts | 39° |
| 2026-05-07 11:42 | 39.84224 | 147.34718 | 36986 ft | 552 kts | 39° |
| 2026-05-07 11:43 | 39.88827 | 147.40476 | 36989 ft | 552 kts | 39° |
| 2026-05-07 11:43 | 39.95295 | 147.48586 | 37018 ft | 552 kts | 39° |
| 2026-05-07 11:44 | 40.00794 | 147.55497 | 36990 ft | 553 kts | 39° |
| 2026-05-07 11:44 | 40.06336 | 147.62477 | 36990 ft | 554 kts | 39° |
| 2026-05-07 11:45 | 40.11874 | 147.69472 | 36989 ft | 553 kts | 39° |
| 2026-05-07 11:45 | 40.16503 | 147.75331 | 36991 ft | 553 kts | 39° |
| 2026-05-07 11:46 | 40.22028 | 147.82339 | 36996 ft | 553 kts | 39° |
| 2026-05-07 11:46 | 40.27509 | 147.89307 | 37010 ft | 553 kts | 39° |
| 2026-05-07 11:47 | 40.33029 | 147.96343 | 36993 ft | 554 kts | 39° |
| 2026-05-07 11:47 | 40.38542 | 148.03386 | 36993 ft | 553 kts | 39° |
| 2026-05-07 11:48 | 40.44054 | 148.10445 | 37003 ft | 553 kts | 39° |
| 2026-05-07 11:48 | 40.49558 | 148.17511 | 36995 ft | 554 kts | 39° |
| 2026-05-07 11:49 | 40.55070 | 148.24604 | 36992 ft | 554 kts | 39° |
| 2026-05-07 11:49 | 40.60575 | 148.31705 | 36999 ft | 554 kts | 39° |
| 2026-05-07 11:50 | 40.66070 | 148.38811 | 37001 ft | 554 kts | 39° |
| 2026-05-07 11:50 | 40.71561 | 148.45929 | 36997 ft | 554 kts | 39° |
| 2026-05-07 11:51 | 40.77054 | 148.53068 | 36998 ft | 554 kts | 39° |
| 2026-05-07 11:51 | 40.82544 | 148.60219 | 36999 ft | 555 kts | 39° |
| 2026-05-07 11:52 | 40.88030 | 148.67384 | 36999 ft | 555 kts | 39° |
| 2026-05-07 11:52 | 40.93482 | 148.74521 | 36999 ft | 556 kts | 39° |
| 2026-05-07 11:53 | 40.98981 | 148.81736 | 36998 ft | 557 kts | 39° |
| 2026-05-07 11:53 | 41.04474 | 148.88963 | 36995 ft | 557 kts | 39° |
| 2026-05-07 11:54 | 41.09962 | 148.96204 | 37000 ft | 557 kts | 40° |
| 2026-05-07 11:54 | 41.15455 | 149.03474 | 37001 ft | 557 kts | 40° |
| 2026-05-07 11:55 | 41.20940 | 149.10749 | 37034 ft | 557 kts | 39° |
| 2026-05-07 11:55 | 41.26422 | 149.18040 | 37005 ft | 558 kts | 39° |
| 2026-05-07 11:56 | 41.31910 | 149.25356 | 37000 ft | 559 kts | 39° |
| 2026-05-07 11:56 | 41.37390 | 149.32682 | 37005 ft | 559 kts | 39° |
| 2026-05-07 11:57 | 41.42866 | 149.40021 | 36996 ft | 558 kts | 39° |
| 2026-05-07 11:57 | 41.48340 | 149.47373 | 37001 ft | 558 kts | 39° |
| 2026-05-07 11:58 | 41.53803 | 149.54732 | 37018 ft | 558 kts | 39° |
| 2026-05-07 11:58 | 41.59266 | 149.62108 | 36998 ft | 558 kts | 39° |
| 2026-05-07 11:59 | 41.64722 | 149.69495 | 37001 ft | 559 kts | 39° |
| 2026-05-07 11:59 | 41.70139 | 149.76847 | 37001 ft | 558 kts | 39° |
| 2026-05-07 12:00 | 41.75573 | 149.84243 | 36997 ft | 558 kts | 39° |
| 2026-05-07 12:00 | 41.81023 | 149.91677 | 36990 ft | 558 kts | 39° |
| 2026-05-07 12:01 | 41.86454 | 149.99107 | 37000 ft | 557 kts | 39° |
| 2026-05-07 12:01 | 41.91874 | 150.06538 | 36993 ft | 557 kts | 39° |
| 2026-05-07 12:02 | 41.97301 | 150.13997 | 36993 ft | 557 kts | 39° |
| 2026-05-07 12:02 | 42.02715 | 150.21461 | 36993 ft | 557 kts | 39° |
| 2026-05-07 12:03 | 42.08121 | 150.28933 | 36993 ft | 557 kts | 39° |
| 2026-05-07 12:03 | 42.13521 | 150.36414 | 37000 ft | 557 kts | 39° |
| 2026-05-07 12:04 | 42.18916 | 150.43910 | 37001 ft | 557 kts | 39° |
| 2026-05-07 12:04 | 42.24275 | 150.51372 | 36990 ft | 558 kts | 39° |
| 2026-05-07 12:05 | 42.29675 | 150.58912 | 37007 ft | 559 kts | 39° |
| 2026-05-07 12:05 | 42.35072 | 150.66469 | 36985 ft | 559 kts | 39° |
| 2026-05-07 12:06 | 42.40462 | 150.74037 | 36991 ft | 559 kts | 39° |
| 2026-05-07 12:06 | 42.45858 | 150.81632 | 36993 ft | 559 kts | 39° |
| 2026-05-07 12:07 | 42.51248 | 150.89239 | 37000 ft | 559 kts | 39° |
| 2026-05-07 12:07 | 42.56640 | 150.96869 | 36983 ft | 560 kts | 39° |
| 2026-05-07 12:08 | 42.61996 | 151.04467 | 36985 ft | 560 kts | 39° |
| 2026-05-07 12:08 | 42.67377 | 151.12123 | 36983 ft | 561 kts | 39° |
| 2026-05-07 12:09 | 42.72762 | 151.19804 | 36979 ft | 561 kts | 39° |
| 2026-05-07 12:09 | 42.78137 | 151.27494 | 36982 ft | 560 kts | 39° |
| 2026-05-07 12:10 | 42.83502 | 151.35190 | 37003 ft | 560 kts | 39° |
| 2026-05-07 12:10 | 42.88861 | 151.42894 | 36971 ft | 560 kts | 39° |
| 2026-05-07 12:11 | 42.94220 | 151.50621 | 36988 ft | 560 kts | 39° |
| 2026-05-07 12:11 | 42.99569 | 151.58357 | 36974 ft | 560 kts | 39° |
| 2026-05-07 12:12 | 43.04910 | 151.66100 | 36977 ft | 560 kts | 39° |
| 2026-05-07 12:12 | 43.10242 | 151.73850 | 36975 ft | 560 kts | 39° |
| 2026-05-07 12:13 | 43.15574 | 151.81623 | 36969 ft | 559 kts | 39° |
| 2026-05-07 12:13 | 43.20864 | 151.89353 | 36971 ft | 561 kts | 39° |
| 2026-05-07 12:14 | 43.26202 | 151.97176 | 36976 ft | 562 kts | 39° |
| 2026-05-07 12:14 | 43.31536 | 152.05017 | 36971 ft | 562 kts | 39° |
| 2026-05-07 12:15 | 43.36862 | 152.12867 | 36956 ft | 562 kts | 39° |
| 2026-05-07 12:15 | 43.42188 | 152.20739 | 36961 ft | 562 kts | 39° |
| 2026-05-07 12:16 | 43.47509 | 152.28625 | 36961 ft | 561 kts | 39° |
| 2026-05-07 12:16 | 43.52821 | 152.36518 | 36960 ft | 562 kts | 39° |
| 2026-05-07 12:17 | 43.58140 | 152.44442 | 36965 ft | 564 kts | 39° |
| 2026-05-07 12:17 | 43.63456 | 152.52389 | 36960 ft | 563 kts | 39° |
| 2026-05-07 12:18 | 43.68764 | 152.60344 | 36961 ft | 563 kts | 39° |
| 2026-05-07 12:18 | 43.74071 | 152.68319 | 36967 ft | 563 kts | 39° |
| 2026-05-07 12:19 | 43.79366 | 152.76301 | 36952 ft | 563 kts | 39° |
| 2026-05-07 12:19 | 43.84658 | 152.84298 | 36953 ft | 563 kts | 39° |
| 2026-05-07 12:20 | 43.89908 | 152.92254 | 36963 ft | 563 kts | 39° |
| 2026-05-07 12:20 | 43.95186 | 153.00278 | 36949 ft | 563 kts | 39° |
| 2026-05-07 12:21 | 44.00456 | 153.08310 | 36949 ft | 562 kts | 39° |
| 2026-05-07 12:21 | 44.05721 | 153.16356 | 36950 ft | 563 kts | 39° |
| 2026-05-07 12:22 | 44.10974 | 153.24411 | 36941 ft | 562 kts | 39° |
| 2026-05-07 12:22 | 44.16218 | 153.32472 | 36941 ft | 562 kts | 39° |
| 2026-05-07 12:23 | 44.21465 | 153.40558 | 36940 ft | 564 kts | 39° |
| 2026-05-07 12:23 | 44.26723 | 153.48685 | 36938 ft | 565 kts | 39° |
| 2026-05-07 12:24 | 44.31975 | 153.56830 | 36933 ft | 565 kts | 39° |
| 2026-05-07 12:24 | 44.37227 | 153.64999 | 36933 ft | 565 kts | 39° |
| 2026-05-07 12:25 | 44.42470 | 153.73180 | 36930 ft | 564 kts | 39° |
| 2026-05-07 12:25 | 44.47700 | 153.81361 | 36924 ft | 564 kts | 39° |
| 2026-05-07 12:26 | 44.52929 | 153.89563 | 36932 ft | 564 kts | 39° |
| 2026-05-07 12:26 | 44.58161 | 153.97792 | 36928 ft | 565 kts | 39° |
| 2026-05-07 12:27 | 44.63385 | 154.06035 | 36928 ft | 565 kts | 39° |
| 2026-05-07 12:27 | 44.68606 | 154.14298 | 36914 ft | 565 kts | 39° |
| 2026-05-07 12:28 | 44.73819 | 154.22575 | 36923 ft | 565 kts | 39° |
| 2026-05-07 12:28 | 44.79023 | 154.30860 | 36924 ft | 564 kts | 39° |
| 2026-05-07 12:29 | 44.84181 | 154.39094 | 36912 ft | 565 kts | 39° |
| 2026-05-07 12:29 | 44.89361 | 154.47445 | 36918 ft | 567 kts | 39° |
| 2026-05-07 12:30 | 44.94491 | 154.55911 | 36912 ft | 568 kts | 40° |
| 2026-05-07 12:30 | 44.99607 | 154.64400 | 36908 ft | 567 kts | 40° |
| 2026-05-07 12:31 | 45.04728 | 154.72895 | 36918 ft | 567 kts | 40° |
| 2026-05-07 12:31 | 45.09831 | 154.81371 | 36909 ft | 566 kts | 40° |
| 2026-05-07 12:32 | 45.14934 | 154.89867 | 36904 ft | 566 kts | 40° |
| 2026-05-07 12:32 | 45.20028 | 154.98373 | 36946 ft | 566 kts | 40° |
| 2026-05-07 12:33 | 45.27660 | 155.11169 | 36897 ft | 567 kts | 40° |
| 2026-05-07 12:33 | 45.32747 | 155.19730 | 36897 ft | 567 kts | 40° |
| 2026-05-07 12:34 | 45.37829 | 155.28312 | 36905 ft | 567 kts | 40° |
| 2026-05-07 12:34 | 45.42852 | 155.36824 | 36892 ft | 565 kts | 40° |
| 2026-05-07 12:35 | 45.47915 | 155.45422 | 36891 ft | 565 kts | 40° |
| 2026-05-07 12:35 | 45.52963 | 155.54022 | 36913 ft | 566 kts | 40° |
| 2026-05-07 12:36 | 45.57997 | 155.62628 | 36886 ft | 565 kts | 40° |
| 2026-05-07 12:36 | 45.62185 | 155.69804 | 36886 ft | 566 kts | 40° |
| 2026-05-07 12:37 | 45.67219 | 155.78457 | 36887 ft | 566 kts | 40° |
| 2026-05-07 12:37 | 45.72247 | 155.87128 | 36882 ft | 565 kts | 40° |
| 2026-05-07 12:38 | 45.77256 | 155.95794 | 36880 ft | 564 kts | 40° |
| 2026-05-07 12:38 | 45.82253 | 156.04462 | 36883 ft | 564 kts | 40° |
| 2026-05-07 12:39 | 45.87248 | 156.13153 | 36879 ft | 565 kts | 40° |
| 2026-05-07 12:39 | 45.92236 | 156.21860 | 36878 ft | 565 kts | 41° |
| 2026-05-07 12:40 | 45.97236 | 156.30614 | 36873 ft | 566 kts | 41° |
| 2026-05-07 12:40 | 46.02226 | 156.39382 | 36907 ft | 566 kts | 41° |
| 2026-05-07 12:41 | 46.07167 | 156.48094 | 36872 ft | 565 kts | 41° |
| 2026-05-07 12:41 | 46.12130 | 156.56868 | 36870 ft | 565 kts | 41° |
| 2026-05-07 12:42 | 46.17089 | 156.65661 | 36867 ft | 565 kts | 41° |
| 2026-05-07 12:42 | 46.22036 | 156.74462 | 36870 ft | 564 kts | 41° |
| 2026-05-07 12:43 | 46.26972 | 156.83272 | 36867 ft | 564 kts | 41° |
| 2026-05-07 12:43 | 46.31905 | 156.92103 | 36864 ft | 565 kts | 41° |
| 2026-05-07 12:44 | 46.36835 | 157.00959 | 36870 ft | 564 kts | 42° |
| 2026-05-07 12:44 | 46.41747 | 157.09811 | 36864 ft | 564 kts | 42° |
| 2026-05-07 12:45 | 46.46658 | 157.18687 | 36865 ft | 564 kts | 42° |
| 2026-05-07 12:45 | 46.51562 | 157.27579 | 36875 ft | 564 kts | 42° |
| 2026-05-07 12:46 | 46.56454 | 157.36481 | 36861 ft | 563 kts | 42° |
| 2026-05-07 12:46 | 46.61330 | 157.45380 | 36877 ft | 563 kts | 42° |
| 2026-05-07 12:47 | 46.66207 | 157.54305 | 36861 ft | 564 kts | 42° |
| 2026-05-07 12:47 | 46.71080 | 157.63259 | 36862 ft | 563 kts | 42° |
| 2026-05-07 12:48 | 46.75936 | 157.72211 | 36861 ft | 563 kts | 42° |
| 2026-05-07 12:48 | 46.80791 | 157.81186 | 36859 ft | 563 kts | 42° |
| 2026-05-07 12:49 | 46.85637 | 157.90174 | 36863 ft | 563 kts | 42° |
| 2026-05-07 12:49 | 46.90468 | 157.99165 | 36861 ft | 563 kts | 42° |
| 2026-05-07 12:50 | 46.95298 | 158.08183 | 36891 ft | 563 kts | 43° |
| 2026-05-07 12:50 | 47.00092 | 158.17160 | 36862 ft | 564 kts | 43° |
| 2026-05-07 12:51 | 47.04949 | 158.26288 | 36867 ft | 564 kts | 43° |
| 2026-05-07 12:51 | 47.09731 | 158.35307 | 36870 ft | 564 kts | 43° |
| 2026-05-07 12:52 | 47.14538 | 158.44401 | 36871 ft | 564 kts | 43° |
| 2026-05-07 12:52 | 47.19341 | 158.53517 | 36860 ft | 563 kts | 43° |
| 2026-05-07 12:53 | 47.24131 | 158.62640 | 36865 ft | 563 kts | 43° |
| 2026-05-07 12:53 | 47.28915 | 158.71779 | 36877 ft | 563 kts | 43° |
| 2026-05-07 12:54 | 47.33687 | 158.80926 | 36897 ft | 563 kts | 43° |
| 2026-05-07 12:54 | 47.38455 | 158.90098 | 36871 ft | 563 kts | 43° |
| 2026-05-07 12:55 | 47.43207 | 158.99268 | 36871 ft | 563 kts | 43° |
| 2026-05-07 12:55 | 47.47960 | 159.08469 | 36871 ft | 563 kts | 43° |
| 2026-05-07 12:56 | 47.52698 | 159.17675 | 36872 ft | 563 kts | 43° |
| 2026-05-07 12:56 | 47.57433 | 159.26905 | 36877 ft | 563 kts | 43° |
| 2026-05-07 12:57 | 47.62162 | 159.36154 | 36878 ft | 563 kts | 43° |
| 2026-05-07 12:57 | 47.66888 | 159.45429 | 36915 ft | 564 kts | 43° |
| 2026-05-07 12:58 | 47.71574 | 159.54657 | 36875 ft | 564 kts | 44° |
| 2026-05-07 12:58 | 47.76317 | 159.64029 | 36892 ft | 564 kts | 44° |
| 2026-05-07 12:59 | 47.80989 | 159.73293 | 36884 ft | 564 kts | 44° |
| 2026-05-07 12:59 | 47.85690 | 159.82646 | 36882 ft | 563 kts | 44° |
| 2026-05-07 13:00 | 47.90375 | 159.91998 | 36899 ft | 563 kts | 44° |
| 2026-05-07 13:00 | 47.95050 | 160.01362 | 36903 ft | 563 kts | 44° |
| 2026-05-07 13:01 | 47.99719 | 160.10748 | 36904 ft | 563 kts | 44° |
| 2026-05-07 13:01 | 48.04365 | 160.20122 | 36894 ft | 562 kts | 44° |
| 2026-05-07 13:02 | 48.09014 | 160.29532 | 36898 ft | 562 kts | 44° |
| 2026-05-07 13:02 | 48.13647 | 160.38941 | 36898 ft | 562 kts | 44° |
| 2026-05-07 13:03 | 48.18272 | 160.48369 | 36898 ft | 561 kts | 45° |
| 2026-05-07 13:03 | 48.22879 | 160.57794 | 36897 ft | 560 kts | 45° |
| 2026-05-07 13:04 | 48.27480 | 160.67236 | 37030 ft | 560 kts | 45° |
| 2026-05-07 13:04 | 48.29756 | 160.71956 | 37328 ft | 558 kts | 46° |
| 2026-05-07 13:04 | 48.31977 | 160.76722 | 37647 ft | 556 kts | 46° |
| 2026-05-07 13:05 | 48.34159 | 160.81498 | 38028 ft | 552 kts | 47° |
| 2026-05-07 13:05 | 48.36286 | 160.86183 | 38385 ft | 549 kts | 47° |
| 2026-05-07 13:05 | 48.38435 | 160.90912 | 38623 ft | 547 kts | 47° |
| 2026-05-07 13:05 | 48.40588 | 160.95636 | 38732 ft | 546 kts | 47° |
| 2026-05-07 13:06 | 48.44898 | 161.05069 | 38889 ft | 548 kts | 47° |
| 2026-05-07 13:06 | 48.49234 | 161.14562 | 38912 ft | 551 kts | 47° |
| 2026-05-07 13:07 | 48.53556 | 161.24075 | 38903 ft | 549 kts | 47° |
| 2026-05-07 13:07 | 48.57863 | 161.33593 | 38903 ft | 549 kts | 47° |
| 2026-05-07 13:08 | 48.62162 | 161.43120 | 38903 ft | 549 kts | 47° |
| 2026-05-07 13:08 | 48.66453 | 161.52663 | 38903 ft | 548 kts | 48° |
| 2026-05-07 13:09 | 48.70726 | 161.62203 | 38903 ft | 547 kts | 48° |
| 2026-05-07 13:09 | 48.74962 | 161.71689 | 38904 ft | 547 kts | 48° |
| 2026-05-07 13:10 | 48.79222 | 161.81264 | 38912 ft | 547 kts | 49° |
| 2026-05-07 13:10 | 48.83462 | 161.90830 | 38900 ft | 546 kts | 49° |
| 2026-05-07 13:11 | 48.87691 | 162.00405 | 38906 ft | 546 kts | 49° |
| 2026-05-07 13:11 | 48.91911 | 162.09994 | 38901 ft | 546 kts | 49° |
| 2026-05-07 13:12 | 48.96126 | 162.19601 | 38902 ft | 546 kts | 49° |
| 2026-05-07 13:12 | 49.00323 | 162.29207 | 38899 ft | 545 kts | 49° |
| 2026-05-07 13:13 | 49.04508 | 162.38817 | 38898 ft | 545 kts | 49° |
| 2026-05-07 13:13 | 49.08690 | 162.48456 | 38900 ft | 545 kts | 50° |
| 2026-05-07 13:14 | 49.12868 | 162.58118 | 38892 ft | 546 kts | 50° |
| 2026-05-07 13:14 | 49.17037 | 162.67796 | 38896 ft | 546 kts | 50° |
| 2026-05-07 13:15 | 49.21205 | 162.77508 | 38896 ft | 546 kts | 50° |
| 2026-05-07 13:15 | 49.25357 | 162.87219 | 38892 ft | 546 kts | 50° |
| 2026-05-07 13:16 | 49.29507 | 162.96957 | 38896 ft | 546 kts | 51° |
| 2026-05-07 13:16 | 49.33626 | 163.06659 | 38893 ft | 546 kts | 51° |
| 2026-05-07 13:17 | 49.37764 | 163.16444 | 38890 ft | 546 kts | 51° |
| 2026-05-07 13:17 | 49.41890 | 163.26235 | 38892 ft | 546 kts | 51° |
| 2026-05-07 13:18 | 49.46012 | 163.36050 | 38888 ft | 547 kts | 52° |
| 2026-05-07 13:18 | 49.50129 | 163.45893 | 38886 ft | 547 kts | 52° |
| 2026-05-07 13:19 | 49.54238 | 163.55752 | 38882 ft | 547 kts | 52° |
| 2026-05-07 13:19 | 49.58337 | 163.65626 | 38897 ft | 547 kts | 52° |
| 2026-05-07 13:20 | 49.62438 | 163.75537 | 38884 ft | 548 kts | 52° |
| 2026-05-07 13:20 | 49.66524 | 163.85453 | 38880 ft | 548 kts | 52° |
| 2026-05-07 13:21 | 49.70609 | 163.95404 | 38880 ft | 548 kts | 52° |
| 2026-05-07 13:21 | 49.74680 | 164.05356 | 38883 ft | 548 kts | 53° |
| 2026-05-07 13:22 | 49.78747 | 164.15339 | 38915 ft | 548 kts | 53° |
| 2026-05-07 13:22 | 49.82801 | 164.25322 | 38876 ft | 548 kts | 53° |
| 2026-05-07 13:23 | 49.86848 | 164.35332 | 38875 ft | 548 kts | 53° |
| 2026-05-07 13:23 | 49.90883 | 164.45348 | 38876 ft | 548 kts | 53° |
| 2026-05-07 13:24 | 49.94880 | 164.55309 | 38873 ft | 548 kts | 53° |
| 2026-05-07 13:24 | 49.98902 | 164.65368 | 38873 ft | 548 kts | 54° |
| 2026-05-07 13:25 | 50.02914 | 164.75442 | 38873 ft | 548 kts | 54° |
| 2026-05-07 13:25 | 50.06914 | 164.85524 | 38867 ft | 547 kts | 54° |
| 2026-05-07 13:26 | 50.10901 | 164.95613 | 38865 ft | 547 kts | 54° |
| 2026-05-07 13:26 | 50.14209 | 165.04012 | 38889 ft | 547 kts | 54° |
| 2026-05-07 13:27 | 50.18189 | 165.14158 | 38865 ft | 544 kts | 54° |
| 2026-05-07 13:27 | 50.22065 | 165.24191 | 38865 ft | 543 kts | 55° |
| 2026-05-07 13:28 | 50.25933 | 165.34310 | 38862 ft | 542 kts | 55° |
| 2026-05-07 13:28 | 50.29797 | 165.44445 | 38859 ft | 542 kts | 55° |
| 2026-05-07 13:29 | 50.33656 | 165.54590 | 38865 ft | 542 kts | 55° |
| 2026-05-07 13:29 | 50.37511 | 165.64755 | 38857 ft | 543 kts | 55° |
| 2026-05-07 13:30 | 50.41358 | 165.74944 | 38857 ft | 543 kts | 56° |
| 2026-05-07 13:30 | 50.45196 | 165.85147 | 38858 ft | 543 kts | 56° |
| 2026-05-07 13:31 | 50.49027 | 165.95375 | 38860 ft | 543 kts | 56° |
| 2026-05-07 13:31 | 50.52844 | 166.05604 | 38849 ft | 543 kts | 56° |
| 2026-05-07 13:32 | 50.56654 | 166.15856 | 38848 ft | 543 kts | 56° |
| 2026-05-07 13:32 | 50.60454 | 166.26119 | 38848 ft | 543 kts | 56° |
| 2026-05-07 13:33 | 50.64247 | 166.36406 | 38848 ft | 543 kts | 56° |
| 2026-05-07 13:33 | 50.68028 | 166.46702 | 38848 ft | 543 kts | 56° |
| 2026-05-07 13:34 | 50.73661 | 166.62118 | 38846 ft | 543 kts | 57° |
| 2026-05-07 13:35 | 50.77422 | 166.72463 | 38843 ft | 543 kts | 57° |
| 2026-05-07 13:35 | 50.81172 | 166.82818 | 38844 ft | 542 kts | 57° |
| 2026-05-07 13:36 | 50.84896 | 166.93148 | 38842 ft | 539 kts | 57° |
| 2026-05-07 13:36 | 50.88602 | 167.03465 | 38843 ft | 539 kts | 57° |
| 2026-05-07 13:37 | 50.92301 | 167.13803 | 38839 ft | 539 kts | 57° |
| 2026-05-07 13:37 | 50.95989 | 167.24153 | 38838 ft | 539 kts | 57° |
| 2026-05-07 13:38 | 50.99664 | 167.34511 | 38834 ft | 539 kts | 57° |
| 2026-05-07 13:38 | 51.03332 | 167.44893 | 38834 ft | 539 kts | 57° |
| 2026-05-07 13:39 | 51.06990 | 167.55284 | 38827 ft | 539 kts | 57° |
| 2026-05-07 13:39 | 51.10639 | 167.65696 | 38830 ft | 538 kts | 57° |
| 2026-05-07 13:40 | 51.14271 | 167.76101 | 38827 ft | 538 kts | 57° |
| 2026-05-07 13:40 | 51.17898 | 167.86534 | 38851 ft | 538 kts | 58° |
| 2026-05-07 13:41 | 51.21509 | 167.96963 | 38826 ft | 537 kts | 58° |
| 2026-05-07 13:41 | 51.25106 | 168.07394 | 38827 ft | 535 kts | 58° |
| 2026-05-07 13:42 | 51.28676 | 168.17794 | 38826 ft | 534 kts | 58° |
| 2026-05-07 13:42 | 51.32237 | 168.28209 | 38821 ft | 533 kts | 58° |
| 2026-05-07 13:43 | 51.35786 | 168.38631 | 38825 ft | 534 kts | 58° |
| 2026-05-07 13:43 | 51.39326 | 168.49072 | 38823 ft | 533 kts | 59° |
| 2026-05-07 13:44 | 51.42830 | 168.59447 | 38824 ft | 532 kts | 59° |
| 2026-05-07 13:44 | 51.46342 | 168.69893 | 38819 ft | 532 kts | 59° |
| 2026-05-07 13:45 | 51.49846 | 168.80353 | 38815 ft | 532 kts | 59° |
| 2026-05-07 13:45 | 51.53345 | 168.90844 | 38810 ft | 531 kts | 59° |
| 2026-05-07 13:46 | 51.56814 | 169.01293 | 38829 ft | 529 kts | 59° |
| 2026-05-07 13:46 | 51.60268 | 169.11740 | 38810 ft | 529 kts | 59° |
| 2026-05-07 13:47 | 51.63710 | 169.22191 | 38809 ft | 529 kts | 60° |
| 2026-05-07 13:47 | 51.67149 | 169.32676 | 38830 ft | 529 kts | 60° |
| 2026-05-07 13:48 | 51.70568 | 169.43147 | 38817 ft | 527 kts | 60° |
| 2026-05-07 13:48 | 51.73971 | 169.53616 | 38811 ft | 527 kts | 60° |
| 2026-05-07 13:49 | 51.77363 | 169.64093 | 38814 ft | 527 kts | 60° |
| 2026-05-07 13:49 | 51.80753 | 169.74608 | 38814 ft | 527 kts | 60° |
| 2026-05-07 13:50 | 51.84124 | 169.85108 | 38811 ft | 526 kts | 60° |
| 2026-05-07 13:50 | 51.87480 | 169.95606 | 38811 ft | 524 kts | 61° |
| 2026-05-07 13:51 | 51.90817 | 170.06092 | 38816 ft | 524 kts | 61° |
| 2026-05-07 13:51 | 51.94127 | 170.16535 | 38811 ft | 524 kts | 61° |
| 2026-05-07 13:52 | 51.97446 | 170.27052 | 38812 ft | 524 kts | 61° |
| 2026-05-07 13:52 | 52.00752 | 170.37573 | 38810 ft | 523 kts | 62° |
| 2026-05-07 13:53 | 52.04045 | 170.48098 | 38812 ft | 523 kts | 62° |
| 2026-05-07 13:53 | 52.07331 | 170.58648 | 38809 ft | 523 kts | 62° |
| 2026-05-07 13:54 | 52.10610 | 170.69196 | 38807 ft | 523 kts | 61° |
| 2026-05-07 13:54 | 52.14736 | 170.78859 | 38806 ft | 519 kts | 49° |
| 2026-05-07 13:55 | 52.19397 | 170.87848 | 38811 ft | 519 kts | 47° |
| 2026-05-07 13:55 | 52.24125 | 170.96735 | 38804 ft | 519 kts | 47° |
| 2026-05-07 13:56 | 52.28847 | 171.05645 | 38805 ft | 519 kts | 47° |
| 2026-05-07 13:56 | 52.33548 | 171.14588 | 38805 ft | 519 kts | 47° |
| 2026-05-07 13:57 | 52.38238 | 171.23562 | 38800 ft | 519 kts | 47° |
| 2026-05-07 13:57 | 52.42918 | 171.32552 | 38799 ft | 519 kts | 47° |
| 2026-05-07 13:58 | 52.47566 | 171.41509 | 38799 ft | 518 kts | 48° |
| 2026-05-07 13:58 | 52.52230 | 171.50528 | 38796 ft | 518 kts | 48° |
| 2026-05-07 13:59 | 52.56883 | 171.59559 | 38793 ft | 518 kts | 48° |
| 2026-05-07 13:59 | 52.61529 | 171.68608 | 38793 ft | 517 kts | 48° |
| 2026-05-07 14:00 | 52.66162 | 171.77665 | 38797 ft | 518 kts | 48° |
| 2026-05-07 14:00 | 52.70794 | 171.86752 | 38796 ft | 518 kts | 48° |
| 2026-05-07 14:01 | 52.75424 | 171.95868 | 38796 ft | 517 kts | 49° |
| 2026-05-07 14:01 | 52.80026 | 172.04965 | 38790 ft | 515 kts | 49° |
| 2026-05-07 14:02 | 52.84618 | 172.14073 | 38793 ft | 515 kts | 49° |
| 2026-05-07 14:02 | 52.89194 | 172.23183 | 38793 ft | 515 kts | 49° |
| 2026-05-07 14:03 | 52.93769 | 172.32323 | 38791 ft | 515 kts | 49° |
| 2026-05-07 14:03 | 52.98335 | 172.41477 | 38791 ft | 515 kts | 50° |
| 2026-05-07 14:04 | 53.02888 | 172.50637 | 38792 ft | 514 kts | 50° |
| 2026-05-07 14:04 | 53.07423 | 172.59801 | 38788 ft | 513 kts | 50° |
| 2026-05-07 14:05 | 53.11925 | 172.68928 | 38791 ft | 513 kts | 50° |
| 2026-05-07 14:05 | 53.16446 | 172.78128 | 38791 ft | 513 kts | 50° |
| 2026-05-07 14:06 | 53.20960 | 172.87344 | 38789 ft | 513 kts | 50° |
| 2026-05-07 14:06 | 53.25461 | 172.96570 | 38788 ft | 512 kts | 51° |
| 2026-05-07 14:07 | 53.29953 | 173.05813 | 38796 ft | 512 kts | 51° |
| 2026-05-07 14:07 | 53.34432 | 173.15063 | 38788 ft | 511 kts | 51° |
| 2026-05-07 14:08 | 53.38899 | 173.24322 | 38793 ft | 511 kts | 51° |
| 2026-05-07 14:08 | 53.43358 | 173.33596 | 38792 ft | 511 kts | 51° |
| 2026-05-07 14:09 | 53.47803 | 173.42876 | 38796 ft | 510 kts | 51° |
| 2026-05-07 14:09 | 53.52235 | 173.52176 | 38795 ft | 510 kts | 52° |
| 2026-05-07 14:10 | 53.56236 | 173.61999 | 38792 ft | 509 kts | 57° |
| 2026-05-07 14:10 | 53.60083 | 173.72034 | 38794 ft | 509 kts | 58° |
| 2026-05-07 14:11 | 53.63879 | 173.82073 | 38794 ft | 508 kts | 58° |
| 2026-05-07 14:11 | 53.67643 | 173.92059 | 38796 ft | 507 kts | 58° |
| 2026-05-07 14:12 | 53.71427 | 174.02116 | 38799 ft | 507 kts | 58° |
| 2026-05-07 14:12 | 53.75200 | 174.12180 | 38799 ft | 507 kts | 58° |
| 2026-05-07 14:13 | 53.78968 | 174.22270 | 38802 ft | 507 kts | 58° |
| 2026-05-07 14:13 | 53.82725 | 174.32369 | 38801 ft | 506 kts | 59° |
| 2026-05-07 14:14 | 53.86463 | 174.42461 | 38804 ft | 505 kts | 59° |
| 2026-05-07 14:14 | 53.90189 | 174.52563 | 38804 ft | 505 kts | 59° |
| 2026-05-07 14:15 | 53.93279 | 174.60970 | 38805 ft | 505 kts | 59° |
| 2026-05-07 14:15 | 53.96989 | 174.71102 | 38807 ft | 506 kts | 59° |
| 2026-05-07 14:16 | 54.00694 | 174.81262 | 38809 ft | 505 kts | 59° |
| 2026-05-07 14:16 | 54.04385 | 174.91424 | 38810 ft | 505 kts | 59° |
| 2026-05-07 14:17 | 54.08068 | 175.01607 | 38809 ft | 505 kts | 59° |
| 2026-05-07 14:17 | 54.11741 | 175.11804 | 38810 ft | 505 kts | 59° |
| 2026-05-07 14:18 | 54.15407 | 175.22024 | 38813 ft | 505 kts | 60° |
| 2026-05-07 14:18 | 54.19061 | 175.32251 | 38812 ft | 504 kts | 60° |
| 2026-05-07 14:19 | 54.22700 | 175.42479 | 38815 ft | 504 kts | 60° |
| 2026-05-07 14:19 | 54.26326 | 175.52714 | 38816 ft | 504 kts | 60° |
| 2026-05-07 14:20 | 54.29925 | 175.62914 | 38818 ft | 504 kts | 60° |
| 2026-05-07 14:20 | 54.33537 | 175.73193 | 38818 ft | 504 kts | 60° |
| 2026-05-07 14:21 | 54.37139 | 175.83487 | 38823 ft | 503 kts | 60° |
| 2026-05-07 14:21 | 54.40726 | 175.93779 | 38823 ft | 502 kts | 61° |
| 2026-05-07 14:22 | 54.44303 | 176.04088 | 38825 ft | 502 kts | 61° |
| 2026-05-07 14:22 | 54.47864 | 176.14396 | 38824 ft | 501 kts | 61° |
| 2026-05-07 14:23 | 54.51417 | 176.24720 | 38817 ft | 501 kts | 61° |
| 2026-05-07 14:23 | 54.54958 | 176.35053 | 38824 ft | 500 kts | 62° |
| 2026-05-07 14:24 | 54.58481 | 176.45381 | 38827 ft | 500 kts | 62° |
| 2026-05-07 14:24 | 54.61997 | 176.55731 | 38833 ft | 500 kts | 62° |
| 2026-05-07 14:25 | 54.65502 | 176.66091 | 38831 ft | 500 kts | 62° |
| 2026-05-07 14:25 | 54.69000 | 176.76475 | 38820 ft | 500 kts | 62° |
| 2026-05-07 14:26 | 54.72485 | 176.86861 | 38830 ft | 499 kts | 62° |
| 2026-05-07 14:26 | 54.75933 | 176.97186 | 38838 ft | 498 kts | 63° |
| 2026-05-07 14:27 | 54.79392 | 177.07587 | 38839 ft | 498 kts | 63° |
| 2026-05-07 14:27 | 54.82841 | 177.18002 | 38835 ft | 498 kts | 63° |
| 2026-05-07 14:28 | 54.86283 | 177.28441 | 38845 ft | 498 kts | 63° |
| 2026-05-07 14:28 | 54.89714 | 177.38889 | 38839 ft | 498 kts | 63° |
| 2026-05-07 14:29 | 54.93135 | 177.49352 | 38847 ft | 498 kts | 63° |
| 2026-05-07 14:29 | 54.96547 | 177.59836 | 38848 ft | 498 kts | 63° |
| 2026-05-07 14:30 | 54.99947 | 177.70327 | 38859 ft | 498 kts | 63° |
| 2026-05-07 14:30 | 55.03340 | 177.80842 | 38859 ft | 497 kts | 63° |
| 2026-05-07 14:31 | 55.06723 | 177.91371 | 38864 ft | 497 kts | 64° |
| 2026-05-07 14:31 | 55.10090 | 178.01897 | 38865 ft | 497 kts | 64° |
| 2026-05-07 14:32 | 55.13449 | 178.12445 | 38865 ft | 497 kts | 64° |
| 2026-05-07 14:32 | 55.16798 | 178.23006 | 38870 ft | 497 kts | 64° |
| 2026-05-07 14:33 | 55.20136 | 178.33580 | 38875 ft | 497 kts | 64° |
| 2026-05-07 14:33 | 55.23466 | 178.44176 | 38875 ft | 495 kts | 64° |
| 2026-05-07 14:34 | 55.26778 | 178.54760 | 38876 ft | 495 kts | 64° |
| 2026-05-07 14:34 | 55.30057 | 178.65286 | 38878 ft | 494 kts | 64° |
| 2026-05-07 14:35 | 55.33346 | 178.75889 | 38885 ft | 494 kts | 64° |
| 2026-05-07 14:35 | 55.36640 | 178.86504 | 38889 ft | 494 kts | 64° |
| 2026-05-07 14:36 | 55.39922 | 178.97109 | 38895 ft | 493 kts | 64° |
| 2026-05-07 14:36 | 55.43188 | 179.07711 | 38890 ft | 492 kts | 65° |
| 2026-05-07 14:37 | 55.46438 | 179.18322 | 38895 ft | 492 kts | 65° |
| 2026-05-07 14:37 | 55.51295 | 179.34266 | 38902 ft | 492 kts | 65° |
| 2026-05-07 14:38 | 55.54519 | 179.44906 | 38886 ft | 491 kts | 65° |
| 2026-05-07 14:38 | 55.57734 | 179.55564 | 38911 ft | 490 kts | 65° |
| 2026-05-07 14:39 | 55.60930 | 179.66209 | 38911 ft | 490 kts | 65° |
| 2026-05-07 14:39 | 55.64094 | 179.76797 | 38911 ft | 490 kts | 65° |
| 2026-05-07 14:40 | 55.67292 | 179.87543 | 38919 ft | 490 kts | 65° |
| 2026-05-07 14:40 | 55.70438 | 179.98167 | 38928 ft | 490 kts | 65° |
| 2026-05-07 14:41 | 55.73596 | -179.91123 | 38924 ft | 490 kts | 65° |
| 2026-05-07 14:41 | 55.76748 | -179.80382 | 38925 ft | 490 kts | 66° |
| 2026-05-07 14:42 | 55.79890 | -179.69628 | 38928 ft | 490 kts | 66° |
| 2026-05-07 14:42 | 55.83023 | -179.58854 | 38930 ft | 490 kts | 66° |
| 2026-05-07 14:43 | 55.86142 | -179.48081 | 38933 ft | 490 kts | 66° |
| 2026-05-07 14:43 | 55.89256 | -179.37272 | 38938 ft | 490 kts | 66° |
| 2026-05-07 14:44 | 55.92360 | -179.26449 | 38941 ft | 490 kts | 66° |
| 2026-05-07 14:44 | 55.95453 | -179.15612 | 38941 ft | 490 kts | 66° |
| 2026-05-07 14:45 | 55.98536 | -179.04761 | 38944 ft | 490 kts | 66° |
| 2026-05-07 14:45 | 56.01611 | -178.93889 | 38949 ft | 490 kts | 66° |
| 2026-05-07 14:46 | 56.04676 | -178.83000 | 38948 ft | 490 kts | 66° |
| 2026-05-07 14:46 | 56.07717 | -178.72145 | 38958 ft | 487 kts | 67° |
| 2026-05-07 14:47 | 56.10744 | -178.61291 | 38958 ft | 487 kts | 67° |
| 2026-05-07 14:47 | 56.13742 | -178.50485 | 38958 ft | 487 kts | 67° |
| 2026-05-07 14:48 | 56.16747 | -178.39605 | 38958 ft | 487 kts | 67° |
| 2026-05-07 14:48 | 56.19762 | -178.28637 | 38961 ft | 487 kts | 67° |
| 2026-05-07 14:49 | 56.22725 | -178.17808 | 38973 ft | 485 kts | 67° |
| 2026-05-07 14:49 | 56.25690 | -178.06919 | 38970 ft | 485 kts | 67° |
| 2026-05-07 14:50 | 56.28642 | -177.96021 | 38974 ft | 485 kts | 67° |
| 2026-05-07 14:50 | 56.31586 | -177.85106 | 38983 ft | 484 kts | 67° |
| 2026-05-07 14:51 | 56.34512 | -177.74203 | 38983 ft | 483 kts | 68° |
| 2026-05-07 14:51 | 56.37426 | -177.63296 | 38987 ft | 482 kts | 67° |
| 2026-05-07 14:52 | 56.40324 | -177.52393 | 38987 ft | 481 kts | 68° |
| 2026-05-07 14:52 | 56.43210 | -177.41482 | 38991 ft | 481 kts | 68° |
| 2026-05-07 14:53 | 56.46083 | -177.30567 | 38991 ft | 481 kts | 68° |
| 2026-05-07 14:53 | 56.48946 | -177.19639 | 38993 ft | 481 kts | 68° |
| 2026-05-07 14:54 | 56.51802 | -177.08686 | 38990 ft | 481 kts | 68° |
| 2026-05-07 14:54 | 56.54627 | -176.97797 | 39001 ft | 480 kts | 68° |
| 2026-05-07 14:55 | 56.57456 | -176.86842 | 39002 ft | 480 kts | 68° |
| 2026-05-07 14:55 | 56.60276 | -176.75866 | 39007 ft | 480 kts | 68° |
| 2026-05-07 14:56 | 56.63087 | -176.64871 | 39010 ft | 480 kts | 68° |
| 2026-05-07 14:56 | 56.65887 | -176.53862 | 39010 ft | 480 kts | 68° |
| 2026-05-07 14:57 | 56.68685 | -176.42811 | 39017 ft | 480 kts | 68° |
| 2026-05-07 14:57 | 56.71467 | -176.31765 | 39018 ft | 480 kts | 68° |
| 2026-05-07 14:58 | 56.74241 | -176.20699 | 39020 ft | 480 kts | 68° |
| 2026-05-07 14:58 | 56.77006 | -176.09611 | 39020 ft | 480 kts | 68° |
| 2026-05-07 14:59 | 56.79739 | -175.98592 | 39028 ft | 481 kts | 68° |
| 2026-05-07 14:59 | 56.82490 | -175.87447 | 39025 ft | 481 kts | 68° |
| 2026-05-07 15:00 | 56.85232 | -175.76273 | 39034 ft | 482 kts | 68° |
| 2026-05-07 15:00 | 56.87950 | -175.65084 | 39042 ft | 482 kts | 69° |
| 2026-05-07 15:01 | 56.90659 | -175.53882 | 39042 ft | 482 kts | 69° |
| 2026-05-07 15:01 | 56.93362 | -175.42653 | 39042 ft | 482 kts | 68° |
| 2026-05-07 15:02 | 56.96054 | -175.31419 | 39042 ft | 482 kts | 69° |
| 2026-05-07 15:02 | 56.98739 | -175.20156 | 39050 ft | 482 kts | 69° |
| 2026-05-07 15:03 | 57.01411 | -175.08892 | 39049 ft | 482 kts | 69° |
| 2026-05-07 15:03 | 57.04078 | -174.97590 | 39052 ft | 482 kts | 68° |
| 2026-05-07 15:04 | 57.06732 | -174.86276 | 39056 ft | 483 kts | 69° |
| 2026-05-07 15:04 | 57.09360 | -174.75012 | 39059 ft | 483 kts | 69° |
| 2026-05-07 15:05 | 57.11997 | -174.63646 | 39056 ft | 483 kts | 68° |
| 2026-05-07 15:05 | 57.14630 | -174.52254 | 39062 ft | 484 kts | 68° |
| 2026-05-07 15:06 | 57.17253 | -174.40836 | 39067 ft | 484 kts | 68° |
| 2026-05-07 15:06 | 57.19423 | -174.31334 | 39067 ft | 484 kts | 68° |
| 2026-05-07 15:07 | 57.22466 | -174.17950 | 39066 ft | 484 kts | 69° |
| 2026-05-07 15:07 | 57.24624 | -174.08415 | 39071 ft | 484 kts | 68° |
| 2026-05-07 15:08 | 57.27211 | -173.96923 | 39075 ft | 486 kts | 68° |
| 2026-05-07 15:08 | 57.29797 | -173.85361 | 39074 ft | 487 kts | 68° |
| 2026-05-07 15:09 | 57.32371 | -173.73790 | 39076 ft | 487 kts | 68° |
| 2026-05-07 15:09 | 57.34952 | -173.62206 | 39082 ft | 487 kts | 67° |
| 2026-05-07 15:10 | 57.37580 | -173.50650 | 39083 ft | 487 kts | 67° |
| 2026-05-07 15:10 | 57.40208 | -173.39082 | 39083 ft | 487 kts | 67° |
| 2026-05-07 15:11 | 57.42816 | -173.27493 | 39092 ft | 487 kts | 68° |
| 2026-05-07 15:11 | 57.45410 | -173.15882 | 39092 ft | 487 kts | 68° |
| 2026-05-07 15:12 | 57.47978 | -173.04317 | 39091 ft | 487 kts | 68° |
| 2026-05-07 15:12 | 57.50552 | -172.92659 | 39092 ft | 488 kts | 68° |
| 2026-05-07 15:13 | 57.53118 | -172.80977 | 39092 ft | 488 kts | 68° |
| 2026-05-07 15:13 | 57.55677 | -172.69259 | 39093 ft | 488 kts | 67° |
| 2026-05-07 15:14 | 57.58223 | -172.57532 | 39097 ft | 489 kts | 67° |
| 2026-05-07 15:14 | 57.60763 | -172.45767 | 39102 ft | 489 kts | 68° |
| 2026-05-07 15:15 | 57.63274 | -172.34072 | 39103 ft | 489 kts | 67° |
| 2026-05-07 15:15 | 57.65789 | -172.22295 | 39106 ft | 489 kts | 68° |
| 2026-05-07 15:16 | 57.68296 | -172.10489 | 39113 ft | 489 kts | 68° |
| 2026-05-07 15:16 | 57.70791 | -171.98664 | 39108 ft | 489 kts | 67° |
| 2026-05-07 15:17 | 57.73272 | -171.86840 | 39111 ft | 489 kts | 67° |
| 2026-05-07 15:17 | 57.75745 | -171.74978 | 39110 ft | 489 kts | 67° |
| 2026-05-07 15:18 | 57.78206 | -171.63108 | 39113 ft | 489 kts | 67° |
| 2026-05-07 15:18 | 57.80657 | -171.51216 | 39114 ft | 489 kts | 68° |
| 2026-05-07 15:19 | 57.83096 | -171.39321 | 39120 ft | 489 kts | 67° |
| 2026-05-07 15:19 | 57.85525 | -171.27410 | 39117 ft | 489 kts | 67° |
| 2026-05-07 15:20 | 57.87941 | -171.15473 | 39122 ft | 489 kts | 67° |
| 2026-05-07 15:20 | 57.90347 | -171.03525 | 39122 ft | 488 kts | 68° |
| 2026-05-07 15:21 | 57.92738 | -170.91572 | 39126 ft | 488 kts | 68° |
| 2026-05-07 15:21 | 57.95118 | -170.79602 | 39133 ft | 488 kts | 68° |
| 2026-05-07 15:22 | 57.97550 | -170.67682 | 39127 ft | 488 kts | 66° |
| 2026-05-07 15:22 | 58.00130 | -170.55853 | 39124 ft | 488 kts | 66° |
| 2026-05-07 15:23 | 58.02704 | -170.44028 | 39130 ft | 488 kts | 66° |
| 2026-05-07 15:23 | 58.05244 | -170.32159 | 39129 ft | 488 kts | 66° |
| 2026-05-07 15:24 | 58.07747 | -170.20329 | 39132 ft | 488 kts | 67° |
| 2026-05-07 15:24 | 58.10250 | -170.08414 | 39137 ft | 488 kts | 66° |
| 2026-05-07 15:25 | 58.12738 | -169.96507 | 39135 ft | 486 kts | 66° |
| 2026-05-07 15:25 | 58.15213 | -169.84597 | 39132 ft | 486 kts | 66° |
| 2026-05-07 15:26 | 58.17680 | -169.72661 | 39132 ft | 486 kts | 67° |
| 2026-05-07 15:26 | 58.20133 | -169.60721 | 39132 ft | 486 kts | 67° |
| 2026-05-07 15:27 | 58.22573 | -169.48769 | 39132 ft | 486 kts | 67° |
| 2026-05-07 15:27 | 58.25006 | -169.36782 | 39133 ft | 486 kts | 67° |
| 2026-05-07 15:28 | 58.27427 | -169.24782 | 39135 ft | 487 kts | 67° |
| 2026-05-07 15:28 | 58.29840 | -169.12753 | 39135 ft | 487 kts | 67° |
| 2026-05-07 15:29 | 58.32243 | -169.00699 | 39138 ft | 488 kts | 67° |
| 2026-05-07 15:29 | 58.34637 | -168.88617 | 39138 ft | 488 kts | 67° |
| 2026-05-07 15:30 | 58.37021 | -168.76508 | 39144 ft | 488 kts | 68° |
| 2026-05-07 15:30 | 58.39378 | -168.64463 | 39141 ft | 489 kts | 68° |
| 2026-05-07 15:31 | 58.41745 | -168.52298 | 39140 ft | 489 kts | 68° |
| 2026-05-07 15:31 | 58.44100 | -168.40114 | 39140 ft | 489 kts | 68° |
| 2026-05-07 15:32 | 58.46444 | -168.27909 | 39138 ft | 489 kts | 68° |
| 2026-05-07 15:32 | 58.48778 | -168.15686 | 39138 ft | 489 kts | 68° |
| 2026-05-07 15:33 | 58.51099 | -168.03448 | 39144 ft | 490 kts | 68° |
| 2026-05-07 15:33 | 58.53415 | -167.91160 | 39138 ft | 491 kts | 68° |
| 2026-05-07 15:34 | 58.55722 | -167.78843 | 39137 ft | 492 kts | 69° |
| 2026-05-07 15:34 | 58.58018 | -167.66503 | 39138 ft | 492 kts | 69° |
| 2026-05-07 15:35 | 58.60301 | -167.54153 | 39140 ft | 492 kts | 69° |
| 2026-05-07 15:35 | 58.62573 | -167.41782 | 39140 ft | 492 kts | 69° |
| 2026-05-07 15:36 | 58.64834 | -167.29394 | 39139 ft | 492 kts | 69° |
| 2026-05-07 15:36 | 58.67087 | -167.16969 | 39138 ft | 493 kts | 69° |
| 2026-05-07 15:37 | 58.69313 | -167.04610 | 39138 ft | 493 kts | 69° |
| 2026-05-07 15:37 | 58.71551 | -166.92154 | 39138 ft | 493 kts | 69° |
| 2026-05-07 15:38 | 58.73809 | -166.79703 | 39138 ft | 493 kts | 69° |
| 2026-05-07 15:38 | 58.76058 | -166.67241 | 39138 ft | 493 kts | 69° |
| 2026-05-07 15:39 | 58.78292 | -166.54762 | 39137 ft | 493 kts | 69° |
| 2026-05-07 15:39 | 58.80510 | -166.42270 | 39137 ft | 493 kts | 69° |
| 2026-05-07 15:40 | 58.82716 | -166.29754 | 39138 ft | 493 kts | 69° |
| 2026-05-07 15:40 | 58.84911 | -166.17223 | 39131 ft | 493 kts | 70° |
| 2026-05-07 15:41 | 58.87094 | -166.04672 | 39140 ft | 492 kts | 70° |
| 2026-05-07 15:41 | 58.89266 | -165.92116 | 39140 ft | 492 kts | 70° |
| 2026-05-07 15:42 | 58.91428 | -165.79624 | 39134 ft | 493 kts | 70° |
| 2026-05-07 15:42 | 58.93594 | -165.67015 | 39130 ft | 494 kts | 70° |
| 2026-05-07 15:43 | 58.95748 | -165.54384 | 39134 ft | 494 kts | 70° |
| 2026-05-07 15:43 | 58.97888 | -165.41751 | 39129 ft | 494 kts | 70° |
| 2026-05-07 15:44 | 59.00019 | -165.29085 | 39125 ft | 494 kts | 70° |
| 2026-05-07 15:44 | 59.02136 | -165.16412 | 39131 ft | 494 kts | 70° |
| 2026-05-07 15:45 | 59.04242 | -165.03710 | 39128 ft | 494 kts | 70° |
| 2026-05-07 15:45 | 59.06338 | -164.90981 | 39130 ft | 494 kts | 71° |
| 2026-05-07 15:46 | 59.09457 | -164.71873 | 39127 ft | 494 kts | 71° |
| 2026-05-07 15:47 | 59.11516 | -164.59139 | 39130 ft | 494 kts | 71° |
| 2026-05-07 15:47 | 59.13567 | -164.46364 | 39130 ft | 494 kts | 71° |
| 2026-05-07 15:48 | 59.15606 | -164.33570 | 39123 ft | 495 kts | 71° |
| 2026-05-07 15:48 | 59.17638 | -164.20730 | 39123 ft | 496 kts | 71° |
| 2026-05-07 15:49 | 59.19655 | -164.07880 | 39138 ft | 496 kts | 71° |
| 2026-05-07 15:49 | 59.21660 | -163.95015 | 39123 ft | 495 kts | 71° |
| 2026-05-07 15:50 | 59.23650 | -163.82149 | 39120 ft | 495 kts | 71° |
| 2026-05-07 15:50 | 59.25614 | -163.69363 | 39125 ft | 495 kts | 72° |
| 2026-05-07 15:51 | 59.27583 | -163.56437 | 39119 ft | 497 kts | 72° |
| 2026-05-07 15:51 | 59.29541 | -163.43490 | 39118 ft | 497 kts | 72° |
| 2026-05-07 15:52 | 59.31488 | -163.30513 | 39121 ft | 497 kts | 72° |
| 2026-05-07 15:52 | 59.33423 | -163.17516 | 39122 ft | 497 kts | 72° |
| 2026-05-07 15:53 | 59.35343 | -163.04516 | 39120 ft | 497 kts | 72° |
| 2026-05-07 15:53 | 59.37254 | -162.91474 | 39117 ft | 497 kts | 72° |
| 2026-05-07 15:54 | 59.39155 | -162.78401 | 39124 ft | 499 kts | 72° |
| 2026-05-07 15:54 | 59.41043 | -162.65307 | 39116 ft | 499 kts | 72° |
| 2026-05-07 15:55 | 59.42918 | -162.52196 | 39119 ft | 499 kts | 72° |
| 2026-05-07 15:55 | 59.44784 | -162.39047 | 39124 ft | 499 kts | 73° |
| 2026-05-07 15:56 | 59.46664 | -162.26011 | 39119 ft | 499 kts | 71° |
| 2026-05-07 15:56 | 59.48862 | -162.13066 | 39123 ft | 499 kts | 69° |
| 2026-05-07 15:57 | 59.51120 | -162.00137 | 39143 ft | 500 kts | 70° |
| 2026-05-07 15:57 | 59.53323 | -161.87152 | 39134 ft | 500 kts | 70° |
| 2026-05-07 15:58 | 59.55481 | -161.74134 | 39120 ft | 500 kts | 70° |
| 2026-05-07 15:58 | 59.57620 | -161.61085 | 39122 ft | 500 kts | 70° |
| 2026-05-07 15:59 | 59.59389 | -161.50225 | 39110 ft | 500 kts | 70° |
| 2026-05-07 15:59 | 59.61507 | -161.37144 | 39080 ft | 501 kts | 71° |
| 2026-05-07 16:00 | 59.63619 | -161.24010 | 39054 ft | 502 kts | 71° |
| 2026-05-07 16:00 | 59.65723 | -161.10831 | 39023 ft | 502 kts | 71° |
| 2026-05-07 16:01 | 59.67808 | -160.97662 | 39023 ft | 503 kts | 71° |
| 2026-05-07 16:01 | 59.69887 | -160.84441 | 39016 ft | 503 kts | 71° |
| 2026-05-07 16:02 | 59.71953 | -160.71194 | 39010 ft | 503 kts | 71° |
| 2026-05-07 16:02 | 59.74005 | -160.57941 | 39011 ft | 504 kts | 71° |
| 2026-05-07 16:03 | 59.76049 | -160.44631 | 39012 ft | 505 kts | 72° |
| 2026-05-07 16:03 | 59.78069 | -160.31376 | 39012 ft | 505 kts | 72° |
| 2026-05-07 16:04 | 59.80088 | -160.18021 | 39011 ft | 505 kts | 72° |
| 2026-05-07 16:04 | 59.82094 | -160.04651 | 39055 ft | 505 kts | 72° |
| 2026-05-07 16:05 | 59.84089 | -159.91238 | 39037 ft | 506 kts | 72° |
| 2026-05-07 16:05 | 59.86071 | -159.77818 | 39047 ft | 507 kts | 72° |
| 2026-05-07 16:06 | 59.88045 | -159.64334 | 39064 ft | 508 kts | 72° |
| 2026-05-07 16:06 | 59.90008 | -159.50819 | 39066 ft | 508 kts | 72° |
| 2026-05-07 16:07 | 59.91957 | -159.37287 | 39065 ft | 508 kts | 73° |
| 2026-05-07 16:07 | 59.93879 | -159.23835 | 39078 ft | 508 kts | 73° |
| 2026-05-07 16:08 | 59.95799 | -159.10281 | 39090 ft | 508 kts | 73° |
| 2026-05-07 16:08 | 59.97705 | -158.96709 | 39095 ft | 508 kts | 73° |
| 2026-05-07 16:09 | 59.99601 | -158.83095 | 39104 ft | 509 kts | 73° |
| 2026-05-07 16:09 | 60.01483 | -158.69461 | 39098 ft | 509 kts | 73° |
| 2026-05-07 16:10 | 60.03351 | -158.55824 | 39102 ft | 509 kts | 73° |
| 2026-05-07 16:10 | 60.05205 | -158.42161 | 39101 ft | 509 kts | 73° |
| 2026-05-07 16:11 | 60.07045 | -158.28486 | 39104 ft | 509 kts | 73° |
| 2026-05-07 16:11 | 60.08871 | -158.14790 | 39100 ft | 510 kts | 74° |
| 2026-05-07 16:12 | 60.10691 | -158.01024 | 39121 ft | 511 kts | 74° |
| 2026-05-07 16:12 | 60.12498 | -157.87229 | 39104 ft | 512 kts | 74° |
| 2026-05-07 16:13 | 60.14291 | -157.73417 | 39111 ft | 512 kts | 74° |
| 2026-05-07 16:13 | 60.16070 | -157.59579 | 39106 ft | 512 kts | 74° |
| 2026-05-07 16:14 | 60.17823 | -157.45826 | 39105 ft | 512 kts | 74° |
| 2026-05-07 16:14 | 60.19576 | -157.31949 | 39108 ft | 513 kts | 75° |
| 2026-05-07 16:15 | 60.21319 | -157.18010 | 39107 ft | 514 kts | 75° |
| 2026-05-07 16:15 | 60.23047 | -157.04064 | 39109 ft | 514 kts | 75° |
| 2026-05-07 16:16 | 60.24762 | -156.90094 | 39105 ft | 514 kts | 75° |
| 2026-05-07 16:16 | 60.26462 | -156.76107 | 39101 ft | 514 kts | 75° |
| 2026-05-07 16:17 | 60.28147 | -156.62107 | 39102 ft | 514 kts | 75° |
| 2026-05-07 16:17 | 60.29816 | -156.48103 | 39104 ft | 515 kts | 75° |
| 2026-05-07 16:18 | 60.31478 | -156.34027 | 39101 ft | 516 kts | 76° |
| 2026-05-07 16:18 | 60.33123 | -156.19946 | 39103 ft | 516 kts | 76° |
| 2026-05-07 16:19 | 60.34755 | -156.05841 | 39101 ft | 516 kts | 76° |
| 2026-05-07 16:19 | 60.36372 | -155.91718 | 39105 ft | 516 kts | 76° |
| 2026-05-07 16:20 | 60.37964 | -155.77666 | 39099 ft | 517 kts | 76° |
| 2026-05-07 16:20 | 60.39556 | -155.63482 | 39099 ft | 517 kts | 76° |
| 2026-05-07 16:21 | 60.41130 | -155.49292 | 39097 ft | 517 kts | 77° |
| 2026-05-07 16:21 | 60.42691 | -155.35077 | 39095 ft | 517 kts | 77° |
| 2026-05-07 16:22 | 60.44236 | -155.20859 | 39099 ft | 517 kts | 77° |
| 2026-05-07 16:22 | 60.45768 | -155.06605 | 39101 ft | 517 kts | 77° |
| 2026-05-07 16:23 | 60.47283 | -154.92359 | 39109 ft | 518 kts | 77° |
| 2026-05-07 16:23 | 60.48785 | -154.78072 | 39102 ft | 519 kts | 77° |
| 2026-05-07 16:24 | 60.50538 | -154.63846 | 39272 ft | 519 kts | 72° |
| 2026-05-07 16:24 | 60.51619 | -154.56865 | 39450 ft | 518 kts | 71° |
| 2026-05-07 16:24 | 60.52725 | -154.49893 | 39611 ft | 518 kts | 71° |
| 2026-05-07 16:24 | 60.53841 | -154.42946 | 39752 ft | 518 kts | 71° |
| 2026-05-07 16:25 | 60.54961 | -154.35997 | 39894 ft | 517 kts | 71° |
| 2026-05-07 16:25 | 60.56076 | -154.29048 | 40023 ft | 517 kts | 71° |
| 2026-05-07 16:25 | 60.57186 | -154.22104 | 40150 ft | 517 kts | 71° |
| 2026-05-07 16:25 | 60.58290 | -154.15146 | 40271 ft | 517 kts | 71° |
| 2026-05-07 16:26 | 60.59376 | -154.08271 | 40387 ft | 517 kts | 71° |
| 2026-05-07 16:26 | 60.60483 | -154.01226 | 40511 ft | 517 kts | 72° |
| 2026-05-07 16:26 | 60.61561 | -153.94329 | 40605 ft | 517 kts | 72° |
| 2026-05-07 16:27 | 60.63733 | -153.80360 | 40797 ft | 517 kts | 72° |
| 2026-05-07 16:27 | 60.64814 | -153.73360 | 40905 ft | 517 kts | 72° |
| 2026-05-07 16:27 | 60.65891 | -153.66362 | 41010 ft | 517 kts | 72° |
| 2026-05-07 16:28 | 60.68034 | -153.52349 | 41101 ft | 518 kts | 72° |
| 2026-05-07 16:28 | 60.70163 | -153.38319 | 41095 ft | 517 kts | 72° |
| 2026-05-07 16:29 | 60.72277 | -153.24272 | 41092 ft | 517 kts | 72° |
| 2026-05-07 16:29 | 60.74375 | -153.10215 | 41083 ft | 517 kts | 73° |
| 2026-05-07 16:30 | 60.76462 | -152.96108 | 41087 ft | 518 kts | 73° |
| 2026-05-07 16:30 | 60.78535 | -152.81984 | 41086 ft | 519 kts | 73° |
| 2026-05-07 16:31 | 60.80594 | -152.67831 | 41079 ft | 519 kts | 73° |
| 2026-05-07 16:31 | 60.82638 | -152.53661 | 41076 ft | 519 kts | 73° |
| 2026-05-07 16:32 | 60.84653 | -152.39574 | 41074 ft | 518 kts | 73° |
| 2026-05-07 16:32 | 60.86670 | -152.25355 | 41101 ft | 518 kts | 73° |
| 2026-05-07 16:33 | 60.88670 | -152.11132 | 41086 ft | 519 kts | 74° |
| 2026-05-07 16:33 | 60.90658 | -151.96859 | 41093 ft | 520 kts | 74° |
| 2026-05-07 16:34 | 60.92633 | -151.82561 | 41099 ft | 520 kts | 74° |
| 2026-05-07 16:34 | 60.94591 | -151.68255 | 41100 ft | 520 kts | 74° |
| 2026-05-07 16:35 | 60.96535 | -151.53922 | 41100 ft | 520 kts | 74° |
| 2026-05-07 16:35 | 60.98462 | -151.39589 | 41088 ft | 520 kts | 74° |
| 2026-05-07 16:36 | 61.00376 | -151.25222 | 41093 ft | 520 kts | 75° |
| 2026-05-07 16:36 | 61.02273 | -151.10847 | 41084 ft | 520 kts | 75° |
| 2026-05-07 16:37 | 61.04159 | -150.96420 | 41088 ft | 521 kts | 75° |
| 2026-05-07 16:37 | 61.06018 | -150.82068 | 41088 ft | 521 kts | 75° |
| 2026-05-07 16:38 | 61.07874 | -150.67609 | 41094 ft | 521 kts | 75° |
| 2026-05-07 16:38 | 61.09713 | -150.53138 | 41094 ft | 521 kts | 75° |
| 2026-05-07 16:39 | 61.11539 | -150.38637 | 41110 ft | 521 kts | 76° |
| 2026-05-07 16:39 | 61.13348 | -150.24126 | 41105 ft | 521 kts | 76° |
| 2026-05-07 16:40 | 61.15143 | -150.09591 | 41105 ft | 521 kts | 76° |
| 2026-05-07 16:40 | 61.17182 | -149.95201 | 41103 ft | 521 kts | 66° |
| 2026-05-07 16:41 | 61.20242 | -149.81596 | 41108 ft | 521 kts | 63° |
| 2026-05-07 16:41 | 61.23453 | -149.68221 | 41109 ft | 521 kts | 63° |
| 2026-05-07 16:42 | 61.26696 | -149.54766 | 41116 ft | 521 kts | 63° |
| 2026-05-07 16:42 | 61.29907 | -149.41289 | 41118 ft | 521 kts | 63° |
| 2026-05-07 16:43 | 61.33100 | -149.27745 | 41136 ft | 521 kts | 64° |
| 2026-05-07 16:43 | 61.36280 | -149.14164 | 41132 ft | 521 kts | 64° |
| 2026-05-07 16:44 | 61.39441 | -149.00573 | 41122 ft | 522 kts | 64° |
| 2026-05-07 16:44 | 61.42598 | -148.86925 | 41133 ft | 522 kts | 64° |
| 2026-05-07 16:45 | 61.45739 | -148.73254 | 41130 ft | 521 kts | 64° |
| 2026-05-07 16:45 | 61.48865 | -148.59561 | 41138 ft | 521 kts | 64° |
| 2026-05-07 16:46 | 61.51975 | -148.45851 | 41132 ft | 521 kts | 64° |
| 2026-05-07 16:46 | 61.55073 | -148.32106 | 41142 ft | 521 kts | 64° |
| 2026-05-07 16:47 | 61.58159 | -148.18328 | 41141 ft | 522 kts | 65° |
| 2026-05-07 16:47 | 61.61227 | -148.04540 | 41157 ft | 521 kts | 65° |
| 2026-05-07 16:48 | 61.64284 | -147.90710 | 41140 ft | 521 kts | 65° |
| 2026-05-07 16:48 | 61.67308 | -147.76937 | 41152 ft | 522 kts | 65° |
| 2026-05-07 16:49 | 61.70339 | -147.63043 | 41170 ft | 522 kts | 65° |
| 2026-05-07 16:49 | 61.73356 | -147.49124 | 41170 ft | 522 kts | 65° |
| 2026-05-07 16:50 | 61.76357 | -147.35183 | 41157 ft | 521 kts | 65° |
| 2026-05-07 16:50 | 61.79339 | -147.21238 | 41155 ft | 521 kts | 65° |
| 2026-05-07 16:51 | 61.82311 | -147.07250 | 41152 ft | 521 kts | 66° |
| 2026-05-07 16:51 | 61.85249 | -146.93325 | 41154 ft | 521 kts | 66° |
| 2026-05-07 16:52 | 61.88210 | -146.79198 | 41144 ft | 521 kts | 66° |
| 2026-05-07 16:52 | 61.90643 | -146.67520 | 41130 ft | 521 kts | 66° |
| 2026-05-07 16:53 | 61.93557 | -146.53441 | 41122 ft | 521 kts | 66° |
| 2026-05-07 16:53 | 61.96926 | -146.37043 | 41124 ft | 521 kts | 66° |
| 2026-05-07 16:54 | 61.99348 | -146.25174 | 41111 ft | 521 kts | 66° |
| 2026-05-07 16:54 | 62.02201 | -146.11104 | 41110 ft | 521 kts | 66° |
| 2026-05-07 16:55 | 62.05062 | -145.96892 | 41099 ft | 522 kts | 67° |
| 2026-05-07 16:55 | 62.07909 | -145.82653 | 41083 ft | 523 kts | 67° |
| 2026-05-07 16:56 | 62.10743 | -145.68382 | 41074 ft | 523 kts | 67° |
| 2026-05-07 16:56 | 62.14975 | -145.46878 | 41072 ft | 523 kts | 67° |
| 2026-05-07 16:57 | 62.18017 | -145.32746 | 41067 ft | 523 kts | 62° |
| 2026-05-07 16:57 | 62.21455 | -145.19038 | 41098 ft | 523 kts | 61° |
| 2026-05-07 16:58 | 62.24883 | -145.05280 | 41103 ft | 522 kts | 62° |
| 2026-05-07 16:58 | 62.28222 | -144.91436 | 41103 ft | 522 kts | 63° |
| 2026-05-07 16:59 | 62.31517 | -144.77517 | 41096 ft | 522 kts | 63° |
| 2026-05-07 16:59 | 62.34795 | -144.63555 | 41096 ft | 522 kts | 63° |
| 2026-05-07 17:00 | 62.38059 | -144.49579 | 41105 ft | 522 kts | 63° |
| 2026-05-07 17:00 | 62.41310 | -144.35581 | 41121 ft | 522 kts | 63° |
| 2026-05-07 17:01 | 62.44547 | -144.21552 | 41099 ft | 522 kts | 63° |
| 2026-05-07 17:01 | 62.47769 | -144.07497 | 41115 ft | 522 kts | 63° |
| 2026-05-07 17:02 | 62.50974 | -143.93424 | 41106 ft | 522 kts | 64° |
| 2026-05-07 17:02 | 62.54146 | -143.79404 | 41100 ft | 522 kts | 64° |
| 2026-05-07 17:03 | 62.57323 | -143.65268 | 41094 ft | 522 kts | 64° |
| 2026-05-07 17:03 | 62.60490 | -143.51083 | 41094 ft | 522 kts | 64° |
| 2026-05-07 17:04 | 62.63644 | -143.36861 | 41092 ft | 522 kts | 64° |
| 2026-05-07 17:04 | 62.66780 | -143.22629 | 41090 ft | 522 kts | 64° |
| 2026-05-07 17:05 | 62.69902 | -143.08361 | 41088 ft | 521 kts | 64° |
| 2026-05-07 17:05 | 62.72996 | -142.94125 | 41087 ft | 519 kts | 64° |
| 2026-05-07 17:06 | 62.76065 | -142.79910 | 41082 ft | 518 kts | 64° |
| 2026-05-07 17:06 | 62.79102 | -142.65746 | 41083 ft | 518 kts | 65° |
| 2026-05-07 17:07 | 62.82141 | -142.51477 | 41086 ft | 518 kts | 65° |
| 2026-05-07 17:07 | 62.85170 | -142.37157 | 41063 ft | 518 kts | 65° |
| 2026-05-07 17:08 | 62.88184 | -142.22812 | 41056 ft | 519 kts | 65° |
| 2026-05-07 17:08 | 62.91194 | -142.08386 | 41045 ft | 520 kts | 65° |
| 2026-05-07 17:09 | 62.93993 | -141.93741 | 41045 ft | 520 kts | 74° |
| 2026-05-07 17:09 | 62.95195 | -141.78134 | 41045 ft | 519 kts | 85° |
| 2026-05-07 17:10 | 62.95770 | -141.62328 | 41054 ft | 519 kts | 87° |
| 2026-05-07 17:10 | 62.96234 | -141.46496 | 41095 ft | 520 kts | 88° |
| 2026-05-07 17:11 | 62.96691 | -141.30712 | 41097 ft | 521 kts | 88° |
| 2026-05-07 17:11 | 62.97156 | -141.14721 | 41073 ft | 521 kts | 88° |
| 2026-05-07 17:12 | 62.97605 | -140.98945 | 41097 ft | 521 kts | 88° |
| 2026-05-07 17:12 | 62.98041 | -140.83031 | 41097 ft | 521 kts | 88° |
| 2026-05-07 17:13 | 62.98457 | -140.67127 | 41104 ft | 521 kts | 88° |
| 2026-05-07 17:13 | 62.98855 | -140.51232 | 41105 ft | 521 kts | 88° |
| 2026-05-07 17:14 | 62.99235 | -140.35322 | 41102 ft | 521 kts | 88° |
| 2026-05-07 17:14 | 62.99597 | -140.19391 | 41111 ft | 521 kts | 88° |
| 2026-05-07 17:15 | 62.99941 | -140.03476 | 41106 ft | 521 kts | 88° |
| 2026-05-07 17:15 | 63.00352 | -139.87548 | 41115 ft | 521 kts | 86° |
| 2026-05-07 17:16 | 63.00930 | -139.71662 | 41110 ft | 521 kts | 86° |
| 2026-05-07 17:16 | 63.01497 | -139.55749 | 41110 ft | 521 kts | 86° |
| 2026-05-07 17:17 | 63.02017 | -139.39840 | 41116 ft | 521 kts | 87° |
| 2026-05-07 17:17 | 63.02500 | -139.24035 | 41113 ft | 521 kts | 87° |
| 2026-05-07 17:18 | 63.02966 | -139.08107 | 41116 ft | 521 kts | 87° |
| 2026-05-07 17:18 | 63.03415 | -138.92170 | 41113 ft | 521 kts | 87° |
| 2026-05-07 17:19 | 63.03847 | -138.76239 | 41109 ft | 521 kts | 88° |
| 2026-05-07 17:19 | 63.04263 | -138.60285 | 41109 ft | 521 kts | 88° |
| 2026-05-07 17:20 | 63.04659 | -138.44335 | 41109 ft | 521 kts | 88° |
| 2026-05-07 17:20 | 63.05038 | -138.28384 | 41111 ft | 521 kts | 88° |
| 2026-05-07 17:21 | 63.05398 | -138.12457 | 41110 ft | 520 kts | 88° |
| 2026-05-07 17:21 | 63.05738 | -137.96642 | 41110 ft | 520 kts | 88° |
| 2026-05-07 17:22 | 63.06063 | -137.80712 | 41111 ft | 520 kts | 88° |
| 2026-05-07 17:22 | 63.06369 | -137.64788 | 41114 ft | 520 kts | 88° |
| 2026-05-07 17:23 | 63.06657 | -137.48859 | 41110 ft | 520 kts | 89° |
| 2026-05-07 17:23 | 63.06928 | -137.32924 | 41117 ft | 520 kts | 89° |
| 2026-05-07 17:24 | 63.07181 | -137.16999 | 41116 ft | 519 kts | 89° |
| 2026-05-07 17:24 | 63.07416 | -137.01094 | 41116 ft | 519 kts | 89° |
| 2026-05-07 17:25 | 63.07631 | -136.85192 | 41109 ft | 519 kts | 89° |
| 2026-05-07 17:25 | 63.07830 | -136.69257 | 41111 ft | 519 kts | 89° |
| 2026-05-07 17:26 | 63.08011 | -136.53325 | 41113 ft | 519 kts | 89° |
| 2026-05-07 17:26 | 63.08173 | -136.37541 | 41114 ft | 519 kts | 90° |
| 2026-05-07 17:27 | 63.08319 | -136.21576 | 41126 ft | 519 kts | 90° |